Observation data for New Home on 05/26/2019      Previous  Date  Next       Current Mesonet Observations  Soil Data  Daily Summary Page  Observations in Plain Language
KNH1 260500Z 17008KT 21/18 A2997 RMK A01 T02130179  RH  081%=      5-min Rain = 0
KNH1 260501Z 18008KT 21/18 A2997 RMK A01 T02140179  RH  081%=      5-min Rain = 0
KNH1 260502Z 18007KT 21/18 A2997 RMK A01 T02130179  RH  081%=      5-min Rain = 0
KNH1 260503Z 17007KT 21/18 A2997 RMK A01 T02130179  RH  081%=      5-min Rain = 0
KNH1 260504Z 17008KT 21/18 A2997 RMK A01 T02130179  RH  081%=      5-min Rain = 0
KNH1 260505Z 17007KT 21/18 A2997 RMK A01 T02120179  RH  081%=      5-min Rain = 0
KNH1 260506Z 17008KT 21/18 A2997 RMK A01 T02120179  RH  081%=      5-min Rain = 0
KNH1 260507Z 17008KT 21/18 A2997 RMK A01 T02120179  RH  081%=      5-min Rain = 0
KNH1 260508Z 17007KT 21/18 A2997 RMK A01 T02120179  RH  082%=      5-min Rain = 0
KNH1 260509Z 17007KT 21/18 A2997 RMK A01 T02120179  RH  082%=      5-min Rain = 0
KNH1 260510Z 17008KT 21/18 A2997 RMK A01 T02120179  RH  082%=      5-min Rain = 0
KNH1 260511Z 17007KT 21/18 A2997 RMK A01 T02120179  RH  082%=      5-min Rain = 0
KNH1 260512Z 16007KT 21/18 A2997 RMK A01 T02110179  RH  082%=      5-min Rain = 0
KNH1 260513Z 16007KT 21/18 A2997 RMK A01 T02100179  RH  082%=      5-min Rain = 0
KNH1 260514Z 17006KT 21/18 A2997 RMK A01 T02100179  RH  082%=      5-min Rain = 0
KNH1 260515Z 17007KT 21/18 A2997 RMK A01 T02090179  RH  083%=      5-min Rain = 0
KNH1 260516Z 17007KT 21/18 A2997 RMK A01 T02090179  RH  083%=      5-min Rain = 0
KNH1 260517Z 16007KT 21/18 A2997 RMK A01 T02090179  RH  083%=      5-min Rain = 0
KNH1 260518Z 17008KT 21/18 A2997 RMK A01 T02090179  RH  083%=      5-min Rain = 0
KNH1 260519Z 17006KT 21/18 A2997 RMK A01 T02080179  RH  083%=      5-min Rain = 0
KNH1 260520Z 17007KT 21/18 A2997 RMK A01 T02090179  RH  083%=      5-min Rain = 0
KNH1 260521Z 17007KT 21/18 A2997 RMK A01 T02080179  RH  083%=      5-min Rain = 0
KNH1 260522Z 17006KT 21/18 A2997 RMK A01 T02090179  RH  083%=      5-min Rain = 0
KNH1 260523Z 17007KT 21/18 A2997 RMK A01 T02080179  RH  083%=      5-min Rain = 0
KNH1 260524Z 17006KT 21/18 A2997 RMK A01 T02080179  RH  083%=      5-min Rain = 0
KNH1 260525Z 17007KT 21/18 A2997 RMK A01 T02080178  RH  083%=      5-min Rain = 0
KNH1 260526Z 17007KT 21/18 A2997 RMK A01 T02080179  RH  083%=      5-min Rain = 0
KNH1 260527Z 17006KT 21/18 A2997 RMK A01 T02080179  RH  084%=      5-min Rain = 0
KNH1 260528Z 17007KT 21/18 A2997 RMK A01 T02070179  RH  084%=      5-min Rain = 0
KNH1 260529Z 17006KT 21/18 A2997 RMK A01 T02070179  RH  084%=      5-min Rain = 0
KNH1 260530Z 17006KT 21/18 A2997 RMK A01 T02070179  RH  084%=      5-min Rain = 0
KNH1 260531Z 17006KT 21/18 A2997 RMK A01 T02070179  RH  084%=      5-min Rain = 0
KNH1 260532Z 17006KT 21/18 A2998 RMK A01 T02070179  RH  084%=      5-min Rain = 0
KNH1 260533Z 17006KT 21/18 A2998 RMK A01 T02060179  RH  084%=      5-min Rain = 0
KNH1 260534Z 18006KT 21/18 A2998 RMK A01 T02060179  RH  084%=      5-min Rain = 0
KNH1 260535Z 17006KT 21/18 A2998 RMK A01 T02060179  RH  084%=      5-min Rain = 0
KNH1 260536Z 17006KT 21/18 A2998 RMK A01 T02060179  RH  085%=      5-min Rain = 0
KNH1 260537Z 17006KT 21/18 A2998 RMK A01 T02050179  RH  085%=      5-min Rain = 0
KNH1 260538Z 17006KT 21/18 A2998 RMK A01 T02050179  RH  085%=      5-min Rain = 0
KNH1 260539Z 17007KT 21/18 A2998 RMK A01 T02050179  RH  085%=      5-min Rain = 0
KNH1 260540Z 17007KT 21/18 A2998 RMK A01 T02050179  RH  085%=      5-min Rain = 0
KNH1 260541Z 18006KT 21/18 A2998 RMK A01 T02050179  RH  085%=      5-min Rain = 0
KNH1 260542Z 18006KT 21/18 A2998 RMK A01 T02050178  RH  085%=      5-min Rain = 0
KNH1 260543Z 18007KT 21/18 A2998 RMK A01 T02050179  RH  085%=      5-min Rain = 0
KNH1 260544Z 18007KT 21/18 A2998 RMK A01 T02050179  RH  085%=      5-min Rain = 0
KNH1 260545Z 18007KT 21/18 A2998 RMK A01 T02050179  RH  085%=      5-min Rain = 0
KNH1 260546Z 18006KT 21/18 A2998 RMK A01 T02050179  RH  085%=      5-min Rain = 0
KNH1 260547Z 18006KT 21/18 A2998 RMK A01 T02050179  RH  085%=      5-min Rain = 0
KNH1 260548Z 18006KT 21/18 A2998 RMK A01 T02050179  RH  085%=      5-min Rain = 0
KNH1 260549Z 18007KT 20/18 A2998 RMK A01 T02040179  RH  085%=      5-min Rain = 0
KNH1 260550Z 18006KT 20/18 A2998 RMK A01 T02040179  RH  085%=      5-min Rain = 0
KNH1 260551Z 18007KT 20/18 A2998 RMK A01 T02040179  RH  085%=      5-min Rain = 0
KNH1 260552Z 18007KT 20/18 A2998 RMK A01 T02040179  RH  085%=      5-min Rain = 0
KNH1 260553Z 18007KT 20/18 A2998 RMK A01 T02040179  RH  085%=      5-min Rain = 0
KNH1 260554Z 18007KT 20/18 A2998 RMK A01 T02040178  RH  085%=      5-min Rain = 0
KNH1 260555Z 18007KT 20/18 A2998 RMK A01 T02040178  RH  085%=      5-min Rain = 0
KNH1 260556Z 18006KT 20/18 A2998 RMK A01 T02040179  RH  085%=      5-min Rain = 0
KNH1 260557Z 18006KT 20/18 A2998 RMK A01 T02040178  RH  085%=      5-min Rain = 0
KNH1 260558Z 18006KT 20/18 A2998 RMK A01 T02030178  RH  086%=      5-min Rain = 0
KNH1 260559Z 19006KT 20/18 A2998 RMK A01 T02020178  RH  086%=      5-min Rain = 0
KNH1 260600Z 19006KT 20/18 A2998 RMK A01 T02020178  RH  086%=      5-min Rain = 0
KNH1 260601Z 19006KT 20/18 A2998 RMK A01 T02010178  RH  086%=      5-min Rain = 0
KNH1 260602Z 19006KT 20/18 A2998 RMK A01 T02010178  RH  086%=      5-min Rain = 0
KNH1 260603Z 19006KT 20/18 A2998 RMK A01 T02010178  RH  086%=      5-min Rain = 0
KNH1 260604Z 18006KT 20/18 A2998 RMK A01 T02010178  RH  087%=      5-min Rain = 0
KNH1 260605Z 18006KT 20/18 A2998 RMK A01 T02000178  RH  087%=      5-min Rain = 0
KNH1 260606Z 18007KT 20/18 A2998 RMK A01 T02000178  RH  087%=      5-min Rain = 0
KNH1 260607Z 18007KT 20/18 A2998 RMK A01 T02000178  RH  087%=      5-min Rain = 0
KNH1 260608Z 18007KT 20/18 A2998 RMK A01 T02010178  RH  087%=      5-min Rain = 0
KNH1 260609Z 18006KT 20/18 A2998 RMK A01 T02010178  RH  087%=      5-min Rain = 0
KNH1 260610Z 18007KT 20/18 A2998 RMK A01 T02010178  RH  087%=      5-min Rain = 0
KNH1 260611Z 18007KT 20/18 A2998 RMK A01 T02010178  RH  087%=      5-min Rain = 0
KNH1 260612Z 18006KT 20/18 A2998 RMK A01 T02010178  RH  087%=      5-min Rain = 0
KNH1 260613Z 18006KT 20/18 A2998 RMK A01 T02010178  RH  087%=      5-min Rain = 0
KNH1 260614Z 18006KT 20/18 A2998 RMK A01 T02000178  RH  087%=      5-min Rain = 0
KNH1 260615Z 18007KT 20/18 A2998 RMK A01 T01990177  RH  087%=      5-min Rain = 0
KNH1 260616Z 18007KT 20/18 A2998 RMK A01 T01990178  RH  087%=      5-min Rain = 0
KNH1 260617Z 18007KT 20/18 A2998 RMK A01 T01990178  RH  087%=      5-min Rain = 0
KNH1 260618Z 18007KT 20/18 A2998 RMK A01 T01990178  RH  087%=      5-min Rain = 0
KNH1 260619Z 18007KT 20/18 A2998 RMK A01 T02000178  RH  087%=      5-min Rain = 0
KNH1 260620Z 18007KT 20/18 A2998 RMK A01 T02000178  RH  087%=      5-min Rain = 0
KNH1 260621Z 18007KT 20/18 A2998 RMK A01 T02000178  RH  087%=      5-min Rain = 0
KNH1 260622Z 18007KT 20/18 A2998 RMK A01 T02000178  RH  087%=      5-min Rain = 0
KNH1 260623Z 18006KT 20/18 A2998 RMK A01 T02000178  RH  087%=      5-min Rain = 0
KNH1 260624Z 18007KT 20/18 A2998 RMK A01 T01990177  RH  087%=      5-min Rain = 0
KNH1 260625Z 18007KT 20/18 A2998 RMK A01 T01990178  RH  087%=      5-min Rain = 0
KNH1 260626Z 18006KT 20/18 A2998 RMK A01 T01990178  RH  088%=      5-min Rain = 0
KNH1 260627Z 19006KT 20/18 A2998 RMK A01 T01990178  RH  088%=      5-min Rain = 0
KNH1 260628Z 18006KT 20/18 A2998 RMK A01 T01980177  RH  088%=      5-min Rain = 0
KNH1 260629Z 18006KT 20/18 A2998 RMK A01 T01970177  RH  088%=      5-min Rain = 0
KNH1 260630Z 18006KT 20/18 A2998 RMK A01 T01970177  RH  088%=      5-min Rain = 0
KNH1 260631Z 18006KT 20/18 A2998 RMK A01 T01970177  RH  088%=      5-min Rain = 0
KNH1 260632Z 18006KT 20/18 A2997 RMK A01 T01970177  RH  089%=      5-min Rain = 0
KNH1 260633Z 18006KT 20/18 A2997 RMK A01 T01970177  RH  089%=      5-min Rain = 0
KNH1 260634Z 18006KT 20/18 A2997 RMK A01 T01970177  RH  089%=      5-min Rain = 0
KNH1 260635Z 18006KT 20/18 A2997 RMK A01 T01970177  RH  089%=      5-min Rain = 0
KNH1 260636Z 18006KT 20/18 A2997 RMK A01 T01960177  RH  089%=      5-min Rain = 0
KNH1 260637Z 18006KT 20/18 A2997 RMK A01 T01970177  RH  089%=      5-min Rain = 0
KNH1 260638Z 18005KT 20/18 A2997 RMK A01 T01970177  RH  089%=      5-min Rain = 0
KNH1 260639Z 19006KT 20/18 A2997 RMK A01 T01970177  RH  088%=      5-min Rain = 0
KNH1 260640Z 18006KT 20/18 A2997 RMK A01 T01960177  RH  089%=      5-min Rain = 0
KNH1 260641Z 19006KT 20/18 A2997 RMK A01 T01960176  RH  089%=      5-min Rain = 0
KNH1 260642Z 19006KT 20/18 A2997 RMK A01 T01960177  RH  089%=      5-min Rain = 0
KNH1 260643Z 19006KT 20/18 A2997 RMK A01 T01950177  RH  089%=      5-min Rain = 0
KNH1 260644Z 19006KT 20/18 A2997 RMK A01 T01960177  RH  089%=      5-min Rain = 0
KNH1 260645Z 18006KT 20/18 A2997 RMK A01 T01950177  RH  089%=      5-min Rain = 0
KNH1 260646Z 19005KT 20/18 A2997 RMK A01 T01950177  RH  089%=      5-min Rain = 0
KNH1 260647Z 18005KT 20/18 A2997 RMK A01 T01950176  RH  089%=      5-min Rain = 0
KNH1 260648Z 18006KT 20/18 A2997 RMK A01 T01950176  RH  089%=      5-min Rain = 0
KNH1 260649Z 18006KT 20/18 A2997 RMK A01 T01950176  RH  089%=      5-min Rain = 0
KNH1 260650Z 18006KT 20/18 A2997 RMK A01 T01950177  RH  089%=      5-min Rain = 0
KNH1 260651Z 19006KT 20/18 A2997 RMK A01 T01950177  RH  089%=      5-min Rain = 0
KNH1 260652Z 18006KT 20/18 A2997 RMK A01 T01950177  RH  089%=      5-min Rain = 0
KNH1 260653Z 18006KT 20/18 A2997 RMK A01 T01950177  RH  089%=      5-min Rain = 0
KNH1 260654Z 18006KT 20/18 A2997 RMK A01 T01950177  RH  089%=      5-min Rain = 0
KNH1 260655Z 18005KT 20/18 A2997 RMK A01 T01950177  RH  089%=      5-min Rain = 0
KNH1 260656Z 17005KT 20/18 A2997 RMK A01 T01950177  RH  089%=      5-min Rain = 0
KNH1 260657Z 18005KT 20/18 A2997 RMK A01 T01950177  RH  089%=      5-min Rain = 0
KNH1 260658Z 17005KT 20/18 A2997 RMK A01 T01950177  RH  089%=      5-min Rain = 0
KNH1 260659Z 17006KT 20/18 A2997 RMK A01 T01950177  RH  089%=      5-min Rain = 0
KNH1 260700Z 17006KT 20/18 A2997 RMK A01 T01960178  RH  089%=      5-min Rain = 0
KNH1 260701Z 18005KT 20/18 A2997 RMK A01 T01970178  RH  089%=      5-min Rain = 0
KNH1 260702Z 18006KT 20/18 A2997 RMK A01 T01970178  RH  089%=      5-min Rain = 0
KNH1 260703Z 17005KT 20/18 A2997 RMK A01 T01960177  RH  089%=      5-min Rain = 0
KNH1 260704Z 18005KT 20/18 A2997 RMK A01 T01970177  RH  089%=      5-min Rain = 0
KNH1 260705Z 18006KT 20/18 A2997 RMK A01 T01970178  RH  089%=      5-min Rain = 0
KNH1 260706Z 18004KT 20/18 A2997 RMK A01 T01970177  RH  089%=      5-min Rain = 0
KNH1 260707Z 18005KT 20/18 A2997 RMK A01 T01960177  RH  089%=      5-min Rain = 0
KNH1 260708Z 18005KT 20/18 A2997 RMK A01 T01950176  RH  089%=      5-min Rain = 0
KNH1 260709Z 18005KT 19/18 A2997 RMK A01 T01940176  RH  089%=      5-min Rain = 0
KNH1 260710Z 18005KT 19/18 A2997 RMK A01 T01940177  RH  090%=      5-min Rain = 0
KNH1 260711Z 18005KT 19/18 A2997 RMK A01 T01940177  RH  090%=      5-min Rain = 0
KNH1 260712Z 18005KT 19/18 A2997 RMK A01 T01940177  RH  090%=      5-min Rain = 0
KNH1 260713Z 18006KT 19/18 A2997 RMK A01 T01940177  RH  090%=      5-min Rain = 0
KNH1 260714Z 18005KT 19/18 A2997 RMK A01 T01940177  RH  090%=      5-min Rain = 0
KNH1 260715Z 18006KT 19/18 A2997 RMK A01 T01940177  RH  090%=      5-min Rain = 0
KNH1 260716Z 18005KT 19/18 A2997 RMK A01 T01940177  RH  090%=      5-min Rain = 0
KNH1 260717Z 18006KT 19/18 A2997 RMK A01 T01940177  RH  090%=      5-min Rain = 0
KNH1 260718Z 18006KT 19/18 A2997 RMK A01 T01940177  RH  090%=      5-min Rain = 0
KNH1 260719Z 18005KT 19/18 A2997 RMK A01 T01940177  RH  090%=      5-min Rain = 0
KNH1 260720Z 18005KT 19/18 A2997 RMK A01 T01940177  RH  090%=      5-min Rain = 0
KNH1 260721Z 18005KT 19/18 A2997 RMK A01 T01940177  RH  090%=      5-min Rain = 0
KNH1 260722Z 18005KT 19/18 A2997 RMK A01 T01940177  RH  090%=      5-min Rain = 0
KNH1 260723Z 18004KT 19/18 A2997 RMK A01 T01940177  RH  090%=      5-min Rain = 0
KNH1 260724Z 17005KT 19/18 A2997 RMK A01 T01940177  RH  090%=      5-min Rain = 0
KNH1 260725Z 18005KT 19/18 A2997 RMK A01 T01940177  RH  090%=      5-min Rain = 0
KNH1 260726Z 18005KT 19/18 A2997 RMK A01 T01940177  RH  090%=      5-min Rain = 0
KNH1 260727Z 18005KT 19/18 A2997 RMK A01 T01930177  RH  090%=      5-min Rain = 0
KNH1 260728Z 18006KT 19/18 A2997 RMK A01 T01930177  RH  090%=      5-min Rain = 0
KNH1 260729Z 17005KT 19/18 A2997 RMK A01 T01940177  RH  090%=      5-min Rain = 0
KNH1 260730Z 17005KT 19/18 A2997 RMK A01 T01940177  RH  090%=      5-min Rain = 0
KNH1 260731Z 16006KT 19/18 A2997 RMK A01 T01930177  RH  090%=      5-min Rain = 0
KNH1 260732Z 16006KT 19/18 A2997 RMK A01 T01930177  RH  090%=      5-min Rain = 0
KNH1 260733Z 17006KT 19/18 A2997 RMK A01 T01940177  RH  090%=      5-min Rain = 0
KNH1 260734Z 16005KT 19/18 A2997 RMK A01 T01940177  RH  090%=      5-min Rain = 0
KNH1 260735Z 16004KT 19/18 A2997 RMK A01 T01940177  RH  090%=      5-min Rain = 0
KNH1 260736Z 16005KT 19/18 A2997 RMK A01 T01940177  RH  090%=      5-min Rain = 0
KNH1 260737Z 15004KT 19/18 A2997 RMK A01 T01940177  RH  090%=      5-min Rain = 0
KNH1 260738Z 15005KT 19/18 A2997 RMK A01 T01930177  RH  090%=      5-min Rain = 0
KNH1 260739Z 15004KT 19/18 A2997 RMK A01 T01930177  RH  090%=      5-min Rain = 0
KNH1 260740Z 14005KT 19/18 A2997 RMK A01 T01930177  RH  090%=      5-min Rain = 0
KNH1 260741Z 15005KT 19/18 A2997 RMK A01 T01920176  RH  090%=      5-min Rain = 0
KNH1 260742Z 14004KT 19/18 A2997 RMK A01 T01930177  RH  090%=      5-min Rain = 0
KNH1 260743Z 14005KT 19/18 A2997 RMK A01 T01930177  RH  090%=      5-min Rain = 0
KNH1 260744Z 14004KT 19/18 A2997 RMK A01 T01920176  RH  090%=      5-min Rain = 0
KNH1 260745Z 14005KT 19/18 A2997 RMK A01 T01920176  RH  091%=      5-min Rain = 0
KNH1 260746Z 14005KT 19/18 A2997 RMK A01 T01920176  RH  091%=      5-min Rain = 0
KNH1 260747Z 14005KT 19/18 A2997 RMK A01 T01920176  RH  091%=      5-min Rain = 0
KNH1 260748Z 14005KT 19/18 A2997 RMK A01 T01920176  RH  091%=      5-min Rain = 0
KNH1 260749Z 13005KT 19/18 A2997 RMK A01 T01910176  RH  091%=      5-min Rain = 0
KNH1 260750Z 13005KT 19/18 A2997 RMK A01 T01910176  RH  091%=      5-min Rain = 0
KNH1 260751Z 13005KT 19/18 A2997 RMK A01 T01910176  RH  091%=      5-min Rain = 0
KNH1 260752Z 13005KT 19/18 A2997 RMK A01 T01900176  RH  091%=      5-min Rain = 0
KNH1 260753Z 12004KT 19/18 A2997 RMK A01 T01900175  RH  091%=      5-min Rain = 0
KNH1 260754Z 13004KT 19/18 A2997 RMK A01 T01890175  RH  091%=      5-min Rain = 0
KNH1 260755Z 12004KT 19/18 A2997 RMK A01 T01890175  RH  092%=      5-min Rain = 0
KNH1 260756Z 11005KT 19/18 A2997 RMK A01 T01880175  RH  092%=      5-min Rain = 0
KNH1 260757Z 12005KT 19/18 A2997 RMK A01 T01880175  RH  092%=      5-min Rain = 0
KNH1 260758Z 11006KT 19/18 A2997 RMK A01 T01880175  RH  092%=      5-min Rain = 0
KNH1 260759Z 12005KT 19/18 A2997 RMK A01 T01870175  RH  092%=      5-min Rain = 0
KNH1 260800Z 12005KT 19/18 A2997 RMK A01 T01870175  RH  092%=      5-min Rain = 0
KNH1 260801Z 12005KT 19/18 A2997 RMK A01 T01880176  RH  093%=      5-min Rain = 0
KNH1 260802Z 12005KT 19/18 A2997 RMK A01 T01870175  RH  093%=      5-min Rain = 0
KNH1 260803Z 12005KT 19/18 A2997 RMK A01 T01870175  RH  093%=      5-min Rain = 0
KNH1 260804Z 12005KT 19/18 A2997 RMK A01 T01870175  RH  093%=      5-min Rain = 0
KNH1 260805Z 12005KT 19/18 A2997 RMK A01 T01870175  RH  093%=      5-min Rain = 0
KNH1 260806Z 12005KT 19/18 A2997 RMK A01 T01870175  RH  093%=      5-min Rain = 0
KNH1 260807Z 12004KT 19/18 A2997 RMK A01 T01870175  RH  093%=      5-min Rain = 0
KNH1 260808Z 12005KT 19/18 A2997 RMK A01 T01870175  RH  093%=      5-min Rain = 0
KNH1 260809Z 12005KT 19/18 A2997 RMK A01 T01870175  RH  093%=      5-min Rain = 0
KNH1 260810Z 13005KT 19/17 A2997 RMK A01 T01860174  RH  093%=      5-min Rain = 0
KNH1 260811Z 12004KT 19/18 A2997 RMK A01 T01870175  RH  093%=      5-min Rain = 0
KNH1 260812Z 13005KT 19/17 A2997 RMK A01 T01860174  RH  093%=      5-min Rain = 0
KNH1 260813Z 13006KT 19/18 A2997 RMK A01 T01860175  RH  093%=      5-min Rain = 0
KNH1 260814Z 14005KT 19/18 A2997 RMK A01 T01860175  RH  093%=      5-min Rain = 0
KNH1 260815Z 14005KT 19/18 A2997 RMK A01 T01860175  RH  093%=      5-min Rain = 0
KNH1 260816Z 14007KT 19/18 A2997 RMK A01 T01860175  RH  094%=      5-min Rain = 0
KNH1 260817Z 14006KT 19/18 A2997 RMK A01 T01870176  RH  094%=      5-min Rain = 0
KNH1 260818Z 14006KT 19/18 A2997 RMK A01 T01880177  RH  093%=      5-min Rain = 0
KNH1 260819Z 14007KT 19/18 A2997 RMK A01 T01890177  RH  093%=      5-min Rain = 0
KNH1 260820Z 15006KT 19/18 A2997 RMK A01 T01900178  RH  093%=      5-min Rain = 0
KNH1 260821Z 14006KT 19/18 A2997 RMK A01 T01910178  RH  092%=      5-min Rain = 0
KNH1 260822Z 14007KT 19/18 A2997 RMK A01 T01920178  RH  092%=      5-min Rain = 0
KNH1 260823Z 15005KT 19/18 A2997 RMK A01 T01920178  RH  091%=      5-min Rain = 0
KNH1 260824Z 15007KT 19/18 A2997 RMK A01 T01930178  RH  091%=      5-min Rain = 0
KNH1 260825Z 15006KT 19/18 A2997 RMK A01 T01930178  RH  091%=      5-min Rain = 0
KNH1 260826Z 15006KT 19/18 A2997 RMK A01 T01940178  RH  090%=      5-min Rain = 0
KNH1 260827Z 15006KT 19/18 A2997 RMK A01 T01940178  RH  090%=      5-min Rain = 0
KNH1 260828Z 15006KT 19/18 A2997 RMK A01 T01940178  RH  090%=      5-min Rain = 0
KNH1 260829Z 15007KT 19/18 A2997 RMK A01 T01940178  RH  090%=      5-min Rain = 0
KNH1 260830Z 15006KT 20/18 A2997 RMK A01 T01950178  RH  090%=      5-min Rain = 0
KNH1 260831Z 15006KT 20/18 A2997 RMK A01 T01950178  RH  090%=      5-min Rain = 0
KNH1 260832Z 15006KT 20/18 A2997 RMK A01 T01950178  RH  090%=      5-min Rain = 0
KNH1 260833Z 15006KT 20/18 A2997 RMK A01 T01950178  RH  090%=      5-min Rain = 0
KNH1 260834Z 15006KT 20/18 A2997 RMK A01 T01950178  RH  090%=      5-min Rain = 0
KNH1 260835Z 15006KT 20/18 A2997 RMK A01 T01950178  RH  090%=      5-min Rain = 0
KNH1 260836Z 15005KT 20/18 A2997 RMK A01 T01950178  RH  090%=      5-min Rain = 0
KNH1 260837Z 15006KT 20/18 A2997 RMK A01 T01950178  RH  090%=      5-min Rain = 0
KNH1 260838Z 15005KT 20/18 A2997 RMK A01 T01950178  RH  090%=      5-min Rain = 0
KNH1 260839Z 15005KT 20/18 A2997 RMK A01 T01950178  RH  090%=      5-min Rain = 0
KNH1 260840Z 15005KT 20/18 A2997 RMK A01 T01950178  RH  090%=      5-min Rain = 0
KNH1 260841Z 15005KT 20/18 A2997 RMK A01 T01950178  RH  090%=      5-min Rain = 0
KNH1 260842Z 15005KT 20/18 A2997 RMK A01 T01950178  RH  090%=      5-min Rain = 0
KNH1 260843Z 15005KT 20/18 A2997 RMK A01 T01950178  RH  090%=      5-min Rain = 0
KNH1 260844Z 15005KT 20/18 A2997 RMK A01 T01950178  RH  090%=      5-min Rain = 0
KNH1 260845Z 15004KT 19/18 A2997 RMK A01 T01940178  RH  090%=      5-min Rain = 0
KNH1 260846Z 15005KT 19/18 A2997 RMK A01 T01940177  RH  090%=      5-min Rain = 0
KNH1 260847Z 15005KT 19/18 A2997 RMK A01 T01940178  RH  090%=      5-min Rain = 0
KNH1 260848Z 14005KT 19/18 A2997 RMK A01 T01930177  RH  090%=      5-min Rain = 0
KNH1 260849Z 14006KT 19/18 A2997 RMK A01 T01930177  RH  090%=      5-min Rain = 0
KNH1 260850Z 14005KT 19/18 A2997 RMK A01 T01930177  RH  090%=      5-min Rain = 0
KNH1 260851Z 15004KT 19/18 A2997 RMK A01 T01930177  RH  090%=      5-min Rain = 0
KNH1 260852Z 14005KT 19/18 A2997 RMK A01 T01930177  RH  090%=      5-min Rain = 0
KNH1 260853Z 15005KT 19/18 A2997 RMK A01 T01930177  RH  090%=      5-min Rain = 0
KNH1 260854Z 14006KT 19/18 A2998 RMK A01 T01940178  RH  090%=      5-min Rain = 0
KNH1 260855Z 15004KT 19/18 A2998 RMK A01 T01940178  RH  091%=      5-min Rain = 0
KNH1 260856Z 14005KT 19/18 A2998 RMK A01 T01930178  RH  091%=      5-min Rain = 0
KNH1 260857Z 14006KT 19/18 A2998 RMK A01 T01930177  RH  091%=      5-min Rain = 0
KNH1 260858Z 14005KT 19/18 A2998 RMK A01 T01930177  RH  091%=      5-min Rain = 0
KNH1 260859Z 14005KT 19/18 A2998 RMK A01 T01930177  RH  091%=      5-min Rain = 0
KNH1 260900Z 14004KT 19/18 A2998 RMK A01 T01930177  RH  091%=      5-min Rain = 0
KNH1 260901Z 14005KT 19/18 A2998 RMK A01 T01920177  RH  091%=      5-min Rain = 0
KNH1 260902Z 14005KT 19/18 A2998 RMK A01 T01910176  RH  091%=      5-min Rain = 0
KNH1 260903Z 13004KT 19/18 A2997 RMK A01 T01910176  RH  091%=      5-min Rain = 0
KNH1 260904Z 13004KT 19/18 A2997 RMK A01 T01900176  RH  091%=      5-min Rain = 0
KNH1 260905Z 13005KT 19/18 A2997 RMK A01 T01900176  RH  091%=      5-min Rain = 0
KNH1 260906Z 13006KT 19/18 A2997 RMK A01 T01900176  RH  092%=      5-min Rain = 0
KNH1 260907Z 13006KT 19/18 A2997 RMK A01 T01890176  RH  092%=      5-min Rain = 0
KNH1 260908Z 13005KT 19/18 A2997 RMK A01 T01890176  RH  092%=      5-min Rain = 0
KNH1 260909Z 13006KT 19/18 A2997 RMK A01 T01890176  RH  092%=      5-min Rain = 0
KNH1 260910Z 14006KT 19/18 A2997 RMK A01 T01890176  RH  092%=      5-min Rain = 0
KNH1 260911Z 13005KT 19/18 A2997 RMK A01 T01890176  RH  092%=      5-min Rain = 0
KNH1 260912Z 13006KT 19/18 A2997 RMK A01 T01890176  RH  092%=      5-min Rain = 0
KNH1 260913Z 14005KT 19/18 A2997 RMK A01 T01890176  RH  092%=      5-min Rain = 0
KNH1 260914Z 13006KT 19/18 A2997 RMK A01 T01890176  RH  092%=      5-min Rain = 0
KNH1 260915Z 14005KT 19/18 A2997 RMK A01 T01890177  RH  092%=      5-min Rain = 0
KNH1 260916Z 14006KT 19/18 A2997 RMK A01 T01890176  RH  092%=      5-min Rain = 0
KNH1 260917Z 13006KT 19/18 A2997 RMK A01 T01890177  RH  093%=      5-min Rain = 0
KNH1 260918Z 13006KT 19/18 A2998 RMK A01 T01890176  RH  093%=      5-min Rain = 0
KNH1 260919Z 13006KT 19/18 A2998 RMK A01 T01890177  RH  093%=      5-min Rain = 0
KNH1 260920Z 13006KT 19/18 A2998 RMK A01 T01890177  RH  093%=      5-min Rain = 0
KNH1 260921Z 13005KT 19/18 A2998 RMK A01 T01890177  RH  093%=      5-min Rain = 0
KNH1 260922Z 13005KT 19/18 A2998 RMK A01 T01890178  RH  093%=      5-min Rain = 0
KNH1 260923Z 13004KT 19/18 A2998 RMK A01 T01900178  RH  093%=      5-min Rain = 0
KNH1 260924Z 13005KT 19/18 A2998 RMK A01 T01900179  RH  093%=      5-min Rain = 0
KNH1 260925Z 13005KT 19/18 A2998 RMK A01 T01900179  RH  093%=      5-min Rain = 0
KNH1 260926Z 13005KT 19/18 A2998 RMK A01 T01910180  RH  093%=      5-min Rain = 0
KNH1 260927Z 13004KT 19/18 A2998 RMK A01 T01910180  RH  093%=      5-min Rain = 0
KNH1 260928Z 14004KT 19/18 A2998 RMK A01 T01920180  RH  093%=      5-min Rain = 0
KNH1 260929Z 13005KT 19/18 A2998 RMK A01 T01920180  RH  093%=      5-min Rain = 0
KNH1 260930Z 13005KT 19/18 A2998 RMK A01 T01920181  RH  093%=      5-min Rain = 0
KNH1 260931Z 13004KT 19/18 A2998 RMK A01 T01930181  RH  093%=      5-min Rain = 0
KNH1 260932Z 13005KT 19/18 A2998 RMK A01 T01930181  RH  093%=      5-min Rain = 0
KNH1 260933Z 13005KT 19/18 A2998 RMK A01 T01930182  RH  093%=      5-min Rain = 0
KNH1 260934Z 13006KT 19/18 A2998 RMK A01 T01940182  RH  093%=      5-min Rain = 0
KNH1 260935Z 13005KT 19/18 A2998 RMK A01 T01940182  RH  093%=      5-min Rain = 0
KNH1 260936Z 13004KT 19/18 A2998 RMK A01 T01940182  RH  093%=      5-min Rain = 0
KNH1 260937Z 13004KT 19/18 A2998 RMK A01 T01940182  RH  093%=      5-min Rain = 0
KNH1 260938Z 13005KT 20/18 A2998 RMK A01 T01950183  RH  093%=      5-min Rain = 0
KNH1 260939Z 15003KT 20/18 A2998 RMK A01 T01950183  RH  093%=      5-min Rain = 0
KNH1 260940Z 13005KT 20/18 A2998 RMK A01 T01950183  RH  093%=      5-min Rain = 0
KNH1 260941Z 14005KT 20/18 A2998 RMK A01 T01960184  RH  093%=      5-min Rain = 0
KNH1 260942Z 14005KT 20/18 A2998 RMK A01 T01960184  RH  093%=      5-min Rain = 0
KNH1 260943Z 14006KT 20/18 A2998 RMK A01 T01960184  RH  093%=      5-min Rain = 0
KNH1 260944Z 15006KT 20/18 A2998 RMK A01 T01960184  RH  093%=      5-min Rain = 0
KNH1 260945Z 14005KT 20/19 A2998 RMK A01 T01970185  RH  092%=      5-min Rain = 0
KNH1 260946Z 14006KT 20/19 A2998 RMK A01 T01970185  RH  092%=      5-min Rain = 0
KNH1 260947Z 15005KT 20/19 A2998 RMK A01 T01980185  RH  092%=      5-min Rain = 0
KNH1 260948Z 14007KT 20/19 A2998 RMK A01 T01980185  RH  092%=      5-min Rain = 0
KNH1 260949Z 15005KT 20/19 A2998 RMK A01 T01980185  RH  092%=      5-min Rain = 0
KNH1 260950Z 15005KT 20/19 A2998 RMK A01 T01990185  RH  092%=      5-min Rain = 0
KNH1 260951Z 14006KT 20/19 A2998 RMK A01 T01990185  RH  092%=      5-min Rain = 0
KNH1 260952Z 14006KT 20/19 A2998 RMK A01 T02000186  RH  092%=      5-min Rain = 0
KNH1 260953Z 14006KT 20/19 A2998 RMK A01 T02000186  RH  092%=      5-min Rain = 0
KNH1 260954Z 15005KT 20/19 A2998 RMK A01 T02000186  RH  092%=      5-min Rain = 0
KNH1 260955Z 14006KT 20/19 A2998 RMK A01 T02000186  RH  092%=      5-min Rain = 0
KNH1 260956Z 15007KT 20/19 A2998 RMK A01 T02000186  RH  092%=      5-min Rain = 0
KNH1 260957Z 14007KT 20/19 A2998 RMK A01 T02000187  RH  092%=      5-min Rain = 0
KNH1 260958Z 14006KT 20/19 A2998 RMK A01 T02000187  RH  092%=      5-min Rain = 0
KNH1 260959Z 14008KT 20/19 A2998 RMK A01 T02010187  RH  092%=      5-min Rain = 0
KNH1 261000Z 14008KT 20/19 A2998 RMK A01 T02010187  RH  092%=      5-min Rain = 0
KNH1 261001Z 15007KT 20/19 A2998 RMK A01 T02010187  RH  092%=      5-min Rain = 0
KNH1 261002Z 14007KT 20/19 A2998 RMK A01 T02010187  RH  092%=      5-min Rain = 0
KNH1 261003Z 15009KT 20/19 A2998 RMK A01 T02010187  RH  092%=      5-min Rain = 0
KNH1 261004Z 14008KT 20/19 A2998 RMK A01 T02010187  RH  092%=      5-min Rain = 0
KNH1 261005Z 14007KT 20/19 A2998 RMK A01 T02020188  RH  092%=      5-min Rain = 0
KNH1 261006Z 15005KT 20/19 A2998 RMK A01 T02020188  RH  092%=      5-min Rain = 0
KNH1 261007Z 14008KT 20/19 A2998 RMK A01 T02020188  RH  092%=      5-min Rain = 0
KNH1 261008Z 15007KT 20/19 A2998 RMK A01 T02020188  RH  092%=      5-min Rain = 0
KNH1 261009Z 15008KT 20/19 A2998 RMK A01 T02020188  RH  092%=      5-min Rain = 0
KNH1 261010Z 15009KT 20/19 A2998 RMK A01 T02020188  RH  092%=      5-min Rain = 0
KNH1 261011Z 15007KT 20/19 A2998 RMK A01 T02020188  RH  092%=      5-min Rain = 0
KNH1 261012Z 14008KT 20/19 A2998 RMK A01 T02020188  RH  092%=      5-min Rain = 0
KNH1 261013Z 15009KT 20/19 A2998 RMK A01 T02020188  RH  092%=      5-min Rain = 0
KNH1 261014Z 16009KT 20/19 A2998 RMK A01 T02020189  RH  092%=      5-min Rain = 0
KNH1 261015Z 16008KT 20/19 A2998 RMK A01 T02020189  RH  092%=      5-min Rain = 0
KNH1 261016Z 15009KT 20/19 A2998 RMK A01 T02030189  RH  092%=      5-min Rain = 0
KNH1 261017Z 16011G16KT 20/19 A2998 RMK A01 T02030189  RH  092%=      5-min Rain = 0
KNH1 261018Z 16011KT 20/19 A2998 RMK A01 T02030189  RH  092%=      5-min Rain = 0
KNH1 261019Z 15009KT 20/19 A2998 RMK A01 T02040189  RH  091%=      5-min Rain = 0
KNH1 261020Z 16011KT 20/19 A2998 RMK A01 T02030189  RH  091%=      5-min Rain = 0
KNH1 261021Z 16008KT 20/19 A2998 RMK A01 T02040189  RH  091%=      5-min Rain = 0
KNH1 261022Z 15009KT 20/19 A2998 RMK A01 T02040189  RH  091%=      5-min Rain = 0
KNH1 261023Z 16012KT 20/19 A2998 RMK A01 T02040189  RH  091%=      5-min Rain = 0
KNH1 261024Z 15011KT 20/19 A2998 RMK A01 T02040189  RH  091%=      5-min Rain = 0
KNH1 261025Z 16009KT 20/19 A2998 RMK A01 T02040189  RH  091%=      5-min Rain = 0
KNH1 261026Z 16008KT 20/19 A2998 RMK A01 T02040189  RH  091%=      5-min Rain = 0
KNH1 261027Z 16009KT 20/19 A2998 RMK A01 T02040189  RH  091%=      5-min Rain = 0
KNH1 261028Z 16008KT 20/19 A2998 RMK A01 T02040189  RH  091%=      5-min Rain = 0
KNH1 261029Z 15009KT 20/19 A2998 RMK A01 T02040190  RH  091%=      5-min Rain = 0
KNH1 261030Z 15009KT 20/19 A2998 RMK A01 T02040190  RH  091%=      5-min Rain = 0
KNH1 261031Z 16011KT 20/19 A2998 RMK A01 T02040190  RH  091%=      5-min Rain = 0
KNH1 261032Z 15008KT 20/19 A2998 RMK A01 T02040189  RH  091%=      5-min Rain = 0
KNH1 261033Z 16010KT 20/19 A2998 RMK A01 T02040189  RH  091%=      5-min Rain = 0
KNH1 261034Z 16008KT 21/19 A2998 RMK A01 T02050190  RH  091%=      5-min Rain = 0
KNH1 261035Z 15007KT 21/19 A2998 RMK A01 T02050190  RH  091%=      5-min Rain = 0
KNH1 261036Z 16007KT 21/19 A2998 RMK A01 T02050190  RH  091%=      5-min Rain = 0
KNH1 261037Z 15008KT 21/19 A2998 RMK A01 T02050190  RH  091%=      5-min Rain = 0
KNH1 261038Z 15008KT 20/19 A2998 RMK A01 T02040190  RH  091%=      5-min Rain = 0
KNH1 261039Z 16008KT 20/19 A2998 RMK A01 T02040190  RH  091%=      5-min Rain = 0
KNH1 261040Z 16007KT 21/19 A2998 RMK A01 T02050190  RH  091%=      5-min Rain = 0
KNH1 261041Z 16008KT 20/19 A2998 RMK A01 T02040190  RH  091%=      5-min Rain = 0
KNH1 261042Z 15008G13KT 20/19 A2998 RMK A01 T02040190  RH  091%=      5-min Rain = 0
KNH1 261043Z 15008KT 20/19 A2998 RMK A01 T02040190  RH  091%=      5-min Rain = 0
KNH1 261044Z 15009KT 20/19 A2999 RMK A01 T02040190  RH  091%=      5-min Rain = 0
KNH1 261045Z 15009KT 20/19 A2999 RMK A01 T02040190  RH  091%=      5-min Rain = 0
KNH1 261046Z 15007KT 21/19 A2999 RMK A01 T02050190  RH  091%=      5-min Rain = 0
KNH1 261047Z 16007KT 20/19 A2999 RMK A01 T02040190  RH  091%=      5-min Rain = 0
KNH1 261048Z 16008KT 20/19 A2999 RMK A01 T02040190  RH  091%=      5-min Rain = 0
KNH1 261049Z 16007KT 20/19 A2999 RMK A01 T02040190  RH  091%=      5-min Rain = 0
KNH1 261050Z 16009KT 20/19 A2999 RMK A01 T02040190  RH  091%=      5-min Rain = 0
KNH1 261051Z 16007KT 20/19 A2999 RMK A01 T02040189  RH  091%=      5-min Rain = 0
KNH1 261052Z 16008KT 20/19 A2999 RMK A01 T02040190  RH  092%=      5-min Rain = 0
KNH1 261053Z 16009KT 20/19 A2999 RMK A01 T02040190  RH  092%=      5-min Rain = 0
KNH1 261054Z 16011KT 20/19 A2999 RMK A01 T02040190  RH  092%=      5-min Rain = 0
KNH1 261055Z 16010KT 20/19 A2999 RMK A01 T02040190  RH  092%=      5-min Rain = 0
KNH1 261056Z 16011G16KT 20/19 A2999 RMK A01 T02040190  RH  092%=      5-min Rain = 0
KNH1 261057Z 17012KT 20/19 A2999 RMK A01 T02040190  RH  091%=      5-min Rain = 0
KNH1 261058Z 16009KT 20/19 A2999 RMK A01 T02040190  RH  091%=      5-min Rain = 0
KNH1 261059Z 17011KT 20/19 A2999 RMK A01 T02040189  RH  091%=      5-min Rain = 0
KNH1 261100Z 17009KT 20/19 A2999 RMK A01 T02040190  RH  091%=      5-min Rain = 0
KNH1 261101Z 17010KT 20/19 A2999 RMK A01 T02040190  RH  092%=      5-min Rain = 0
KNH1 261102Z 17009KT 20/19 A2999 RMK A01 T02040190  RH  092%=      5-min Rain = 0
KNH1 261103Z 16009KT 20/19 A2999 RMK A01 T02040190  RH  092%=      5-min Rain = 0
KNH1 261104Z 16011G16KT 20/19 A2999 RMK A01 T02040190  RH  092%=      5-min Rain = 0
KNH1 261105Z 17011KT 20/19 A2999 RMK A01 T02040190  RH  092%=      5-min Rain = 0
KNH1 261106Z 17011KT 20/19 A2999 RMK A01 T02040190  RH  091%=      5-min Rain = 0
KNH1 261107Z 17009KT 20/19 A2999 RMK A01 T02040190  RH  091%=      5-min Rain = 0
KNH1 261108Z 16008KT 20/19 A2999 RMK A01 T02040190  RH  092%=      5-min Rain = 0
KNH1 261109Z 16009KT 20/19 A2999 RMK A01 T02040190  RH  092%=      5-min Rain = 0
KNH1 261110Z 16009KT 20/19 A2999 RMK A01 T02040190  RH  092%=      5-min Rain = 0
KNH1 261111Z 16009KT 20/19 A2999 RMK A01 T02040190  RH  092%=      5-min Rain = 0
KNH1 261112Z 16010KT 20/19 A2999 RMK A01 T02030190  RH  092%=      5-min Rain = 0
KNH1 261113Z 16012KT 20/19 A2999 RMK A01 T02040190  RH  092%=      5-min Rain = 0
KNH1 261114Z 17012KT 20/19 A30 RMK A01 T02030189  RH  092%=      5-min Rain = 0
KNH1 261115Z 17009KT 20/19 A30 RMK A01 T02040189  RH  092%=      5-min Rain = 0
KNH1 261116Z 16010KT 20/19 A30 RMK A01 T02040190  RH  092%=      5-min Rain = 0
KNH1 261117Z 17010KT 20/19 A30 RMK A01 T02040190  RH  092%=      5-min Rain = 0
KNH1 261118Z 17011KT 20/19 A30 RMK A01 T02040190  RH  092%=      5-min Rain = 0
KNH1 261119Z 17011KT 20/19 A2999 RMK A01 T02040190  RH  092%=      5-min Rain = 0
KNH1 261120Z 17010G15KT 20/19 A2999 RMK A01 T02040190  RH  092%=      5-min Rain = 0
KNH1 261121Z 16012KT 20/19 A2999 RMK A01 T02040190  RH  092%=      5-min Rain = 0
KNH1 261122Z 16011KT 20/19 A2999 RMK A01 T02040190  RH  091%=      5-min Rain = 0
KNH1 261123Z 16012KT 20/19 A2999 RMK A01 T02040190  RH  091%=      5-min Rain = 0
KNH1 261124Z 16011G16KT 20/19 A30 RMK A01 T02040190  RH  091%=      5-min Rain = 0
KNH1 261125Z 17012KT 20/19 A30 RMK A01 T02040189  RH  091%=      5-min Rain = 0
KNH1 261126Z 16011KT 20/19 A30 RMK A01 T02040189  RH  091%=      5-min Rain = 0
KNH1 261127Z 16011KT 20/19 A30 RMK A01 T02040190  RH  091%=      5-min Rain = 0
KNH1 261128Z 16009KT 20/19 A30 RMK A01 T02040190  RH  091%=      5-min Rain = 0
KNH1 261129Z 17010KT 20/19 A30 RMK A01 T02040190  RH  091%=      5-min Rain = 0
KNH1 261130Z 17011KT 20/19 A30 RMK A01 T02040190  RH  092%=      5-min Rain = 0
KNH1 261131Z 17012G17KT 20/19 A30 RMK A01 T02040190  RH  092%=      5-min Rain = 0
KNH1 261132Z 16014KT 20/19 A30 RMK A01 T02040190  RH  091%=      5-min Rain = 0
KNH1 261133Z 17012KT 20/19 A30 RMK A01 T02040189  RH  091%=      5-min Rain = 0
KNH1 261134Z 17013G18KT 20/19 A30 RMK A01 T02040189  RH  091%=      5-min Rain = 0
KNH1 261135Z 16011KT 20/19 A30 RMK A01 T02040189  RH  091%=      5-min Rain = 0
KNH1 261136Z 16011KT 20/19 A30 RMK A01 T02040190  RH  091%=      5-min Rain = 0
KNH1 261137Z 16011G16KT 20/19 A30 RMK A01 T02040189  RH  091%=      5-min Rain = 0
KNH1 261138Z 16012KT 21/19 A30 RMK A01 T02050190  RH  091%=      5-min Rain = 0
KNH1 261139Z 16011KT 20/19 A30 RMK A01 T02040190  RH  091%=      5-min Rain = 0
KNH1 261140Z 16012KT 20/19 A30 RMK A01 T02040190  RH  091%=      5-min Rain = 0
KNH1 261141Z 16009KT 20/19 A30 RMK A01 T02040190  RH  091%=      5-min Rain = 0
KNH1 261142Z 16011KT 20/19 A30 RMK A01 T02040190  RH  091%=      5-min Rain = 0
KNH1 261143Z 17011KT 20/19 A2999 RMK A01 T02040190  RH  092%=      5-min Rain = 0
KNH1 261144Z 16010KT 20/19 A2999 RMK A01 T02040190  RH  091%=      5-min Rain = 0
KNH1 261145Z 16009KT 20/19 A30 RMK A01 T02040190  RH  092%=      5-min Rain = 0
KNH1 261146Z 16011KT 20/19 A30 RMK A01 T02040190  RH  092%=      5-min Rain = 0
KNH1 261147Z 16008KT 20/19 A30 RMK A01 T02040190  RH  092%=      5-min Rain = 0
KNH1 261148Z 16009G14KT 20/19 A30 RMK A01 T02040190  RH  092%=      5-min Rain = 0
KNH1 261149Z 16009KT 20/19 A30 RMK A01 T02030190  RH  092%=      5-min Rain = 0
KNH1 261150Z 16010KT 20/19 A30 RMK A01 T02030190  RH  092%=      5-min Rain = 0
KNH1 261151Z 17010KT 20/19 A30 RMK A01 T02040190  RH  092%=      5-min Rain = 0
KNH1 261152Z 16011KT 20/19 A30 RMK A01 T02030190  RH  092%=      5-min Rain = 0
KNH1 261153Z 16008KT 20/19 A30 RMK A01 T02030190  RH  092%=      5-min Rain = 0
KNH1 261154Z 16008KT 20/19 A30 RMK A01 T02030189  RH  092%=      5-min Rain = 0
KNH1 261155Z 16008KT 20/19 A30 RMK A01 T02040190  RH  092%=      5-min Rain = 0
KNH1 261156Z 16010KT 20/19 A30 RMK A01 T02040190  RH  092%=      5-min Rain = 0
KNH1 261157Z 16011KT 20/19 A30 RMK A01 T02040190  RH  092%=      5-min Rain = 0
KNH1 261158Z 16011KT 20/19 A30 RMK A01 T02030189  RH  092%=      5-min Rain = 0
KNH1 261159Z 16011KT 20/19 A30 RMK A01 T02040189  RH  092%=      5-min Rain = 0
KNH1 261200Z 16011KT 20/19 A30 RMK A01 T02040189  RH  091%=      5-min Rain = 0
KNH1 261201Z 16009KT 20/19 A30 RMK A01 T02030189  RH  091%=      5-min Rain = 0
KNH1 261202Z 16010KT 20/19 A30 RMK A01 T02040189  RH  091%=      5-min Rain = 0
KNH1 261203Z 16010KT 20/19 A30 RMK A01 T02030189  RH  091%=      5-min Rain = 0
KNH1 261204Z 16011KT 20/19 A30 RMK A01 T02030189  RH  091%=      5-min Rain = 0
KNH1 261205Z 17011KT 20/19 A30 RMK A01 T02030189  RH  091%=      5-min Rain = 0
KNH1 261206Z 15010G16KT 20/19 A30 RMK A01 T02040189  RH  091%=      5-min Rain = 0
KNH1 261207Z 16009KT 20/19 A30 RMK A01 T02030189  RH  091%=      5-min Rain = 0
KNH1 261208Z 16010KT 20/19 A30 RMK A01 T02040189  RH  091%=      5-min Rain = 0
KNH1 261209Z 16009KT 20/19 A30 RMK A01 T02030189  RH  091%=      5-min Rain = 0
KNH1 261210Z 15010KT 20/19 A30 RMK A01 T02040189  RH  092%=      5-min Rain = 0
KNH1 261211Z 15013KT 20/19 A30 RMK A01 T02030189  RH  091%=      5-min Rain = 0
KNH1 261212Z 16010KT 20/19 A30 RMK A01 T02030189  RH  091%=      5-min Rain = 0
KNH1 261213Z 16011KT 20/19 A30 RMK A01 T02040189  RH  091%=      5-min Rain = 0
KNH1 261214Z 16010KT 20/19 A30 RMK A01 T02040189  RH  091%=      5-min Rain = 0
KNH1 261215Z 16010KT 20/19 A30 RMK A01 T02030189  RH  091%=      5-min Rain = 0
KNH1 261216Z 16010KT 20/19 A3001 RMK A01 T02040189  RH  091%=      5-min Rain = 0
KNH1 261217Z 16010G15KT 20/19 A3001 RMK A01 T02040189  RH  091%=      5-min Rain = 0
KNH1 261218Z 16010KT 20/19 A3001 RMK A01 T02030189  RH  091%=      5-min Rain = 0
KNH1 261219Z 16010G15KT 20/19 A3001 RMK A01 T02030189  RH  091%=      5-min Rain = 0
KNH1 261220Z 16008KT 20/19 A3001 RMK A01 T02030189  RH  091%=      5-min Rain = 0
KNH1 261221Z 16008KT 20/19 A3001 RMK A01 T02040189  RH  091%=      5-min Rain = 0
KNH1 261222Z 16010KT 20/19 A3001 RMK A01 T02040189  RH  091%=      5-min Rain = 0
KNH1 261223Z 16011KT 20/19 A3001 RMK A01 T02030189  RH  091%=      5-min Rain = 0
KNH1 261224Z 16009KT 20/19 A3001 RMK A01 T02040189  RH  091%=      5-min Rain = 0
KNH1 261225Z 16009KT 20/19 A3001 RMK A01 T02030189  RH  091%=      5-min Rain = 0
KNH1 261226Z 16009KT 20/19 A3001 RMK A01 T02030189  RH  091%=      5-min Rain = 0
KNH1 261227Z 16010KT 20/19 A3001 RMK A01 T02040189  RH  091%=      5-min Rain = 0
KNH1 261228Z 16007KT 20/19 A3001 RMK A01 T02030189  RH  091%=      5-min Rain = 0
KNH1 261229Z 15010KT 20/19 A3001 RMK A01 T02030189  RH  091%=      5-min Rain = 0
KNH1 261230Z 15010KT 20/19 A3001 RMK A01 T02030189  RH  091%=      5-min Rain = 0
KNH1 261231Z 16009G14KT 20/19 A3001 RMK A01 T02030189  RH  091%=      5-min Rain = 0
KNH1 261232Z 16010KT 20/19 A3001 RMK A01 T02040189  RH  091%=      5-min Rain = 0
KNH1 261233Z 16010KT 20/19 A3001 RMK A01 T02030189  RH  091%=      5-min Rain = 0
KNH1 261234Z 16011KT 20/19 A3001 RMK A01 T02030189  RH  091%=      5-min Rain = 0
KNH1 261235Z 15010G15KT 20/19 A3001 RMK A01 T02040189  RH  091%=      5-min Rain = 0
KNH1 261236Z 16012KT 20/19 A3001 RMK A01 T02030189  RH  091%=      5-min Rain = 0
KNH1 261237Z 16010KT 20/19 A3001 RMK A01 T02040189  RH  091%=      5-min Rain = 0
KNH1 261238Z 16012KT 20/19 A3001 RMK A01 T02040190  RH  091%=      5-min Rain = 0
KNH1 261239Z 16009KT 20/19 A3001 RMK A01 T02040189  RH  091%=      5-min Rain = 0
KNH1 261240Z 16010KT 20/19 A3001 RMK A01 T02040189  RH  091%=      5-min Rain = 0
KNH1 261241Z 15013KT 20/19 A3001 RMK A01 T02040189  RH  091%=      5-min Rain = 0
KNH1 261242Z 16013KT 20/19 A3001 RMK A01 T02040189  RH  091%=      5-min Rain = 0
KNH1 261243Z 16011KT 20/19 A3001 RMK A01 T02040189  RH  091%=      5-min Rain = 0
KNH1 261244Z 16009G14KT 20/19 A3001 RMK A01 T02040189  RH  091%=      5-min Rain = 0
KNH1 261245Z 16010KT 21/19 A3001 RMK A01 T02050190  RH  091%=      5-min Rain = 0
KNH1 261246Z 15010KT 21/19 A3001 RMK A01 T02050190  RH  091%=      5-min Rain = 0
KNH1 261247Z 15010G15KT 21/19 A3001 RMK A01 T02050190  RH  091%=      5-min Rain = 0
KNH1 261248Z 15012G17KT 21/19 A3001 RMK A01 T02050190  RH  091%=      5-min Rain = 0
KNH1 261249Z 15012KT 21/19 A3001 RMK A01 T02060190  RH  091%=      5-min Rain = 0
KNH1 261250Z 17009KT 21/19 A3001 RMK A01 T02050189  RH  091%=      5-min Rain = 0
KNH1 261251Z 16009KT 21/19 A3001 RMK A01 T02050190  RH  091%=      5-min Rain = 0
KNH1 261252Z 15010G15KT 21/19 A3001 RMK A01 T02060190  RH  091%=      5-min Rain = 0
KNH1 261253Z 16012KT 21/19 A3001 RMK A01 T02060189  RH  090%=      5-min Rain = 0
KNH1 261254Z 16013KT 21/19 A3001 RMK A01 T02060189  RH  090%=      5-min Rain = 0
KNH1 261255Z 16012KT 21/19 A30 RMK A01 T02060189  RH  090%=      5-min Rain = 0
KNH1 261256Z 16009KT 21/19 A30 RMK A01 T02060189  RH  090%=      5-min Rain = 0
KNH1 261257Z 17012G17KT 21/19 A30 RMK A01 T02060189  RH  090%=      5-min Rain = 0
KNH1 261258Z 16011KT 21/19 A30 RMK A01 T02070189  RH  090%=      5-min Rain = 0
KNH1 261259Z 16010KT 21/19 A30 RMK A01 T02070189  RH  090%=      5-min Rain = 0
KNH1 261300Z 16012G18KT 21/19 A30 RMK A01 T02070189  RH  090%=      5-min Rain = 0
KNH1 261301Z 17015KT 21/19 A30 RMK A01 T02070188  RH  089%=      5-min Rain = 0
KNH1 261302Z 16011KT 21/19 A30 RMK A01 T02070188  RH  089%=      5-min Rain = 0
KNH1 261303Z 17009G14KT 21/19 A30 RMK A01 T02070189  RH  089%=      5-min Rain = 0
KNH1 261304Z 17011G17KT 21/19 A30 RMK A01 T02070189  RH  089%=      5-min Rain = 0
KNH1 261305Z 16011KT 21/19 A30 RMK A01 T02070189  RH  089%=      5-min Rain = 0
KNH1 261306Z 16011KT 21/19 A30 RMK A01 T02070189  RH  089%=      5-min Rain = 0
KNH1 261307Z 16010KT 21/19 A30 RMK A01 T02080189  RH  089%=      5-min Rain = 0
KNH1 261308Z 16013KT 21/19 A30 RMK A01 T02070189  RH  089%=      5-min Rain = 0
KNH1 261309Z 16014KT 21/19 A30 RMK A01 T02080190  RH  089%=      5-min Rain = 0
KNH1 261310Z 16012KT 21/19 A30 RMK A01 T02080189  RH  089%=      5-min Rain = 0
KNH1 261311Z 16012KT 21/19 A30 RMK A01 T02080189  RH  089%=      5-min Rain = 0
KNH1 261312Z 16011G17KT 21/19 A30 RMK A01 T02090190  RH  089%=      5-min Rain = 0
KNH1 261313Z 16012KT 21/19 A30 RMK A01 T02090190  RH  089%=      5-min Rain = 0
KNH1 261314Z 16010G15KT 21/19 A30 RMK A01 T02090190  RH  089%=      5-min Rain = 0
KNH1 261315Z 16010KT 21/19 A30 RMK A01 T02100190  RH  088%=      5-min Rain = 0
KNH1 261316Z 17013KT 21/19 A30 RMK A01 T02100189  RH  088%=      5-min Rain = 0
KNH1 261317Z 16013G19KT 21/19 A30 RMK A01 T02100189  RH  088%=      5-min Rain = 0
KNH1 261318Z 16014KT 21/19 A30 RMK A01 T02100188  RH  087%=      5-min Rain = 0
KNH1 261319Z 16014KT 21/19 A30 RMK A01 T02100188  RH  087%=      5-min Rain = 0
KNH1 261320Z 17011G16KT 21/19 A30 RMK A01 T02100188  RH  087%=      5-min Rain = 0
KNH1 261321Z 16011G16KT 21/19 A30 RMK A01 T02100189  RH  088%=      5-min Rain = 0
KNH1 261322Z 16016KT 21/19 A30 RMK A01 T02100188  RH  087%=      5-min Rain = 0
KNH1 261323Z 16013KT 21/19 A3001 RMK A01 T02110189  RH  087%=      5-min Rain = 0
KNH1 261324Z 17012KT 21/19 A3001 RMK A01 T02100189  RH  087%=      5-min Rain = 0
KNH1 261325Z 17013KT 21/19 A3001 RMK A01 T02100189  RH  088%=      5-min Rain = 0
KNH1 261326Z 16012KT 21/19 A3001 RMK A01 T02110189  RH  087%=      5-min Rain = 0
KNH1 261327Z 17011G16KT 21/19 A30 RMK A01 T02110189  RH  087%=      5-min Rain = 0
KNH1 261328Z 16011KT 21/19 A30 RMK A01 T02110189  RH  087%=      5-min Rain = 0
KNH1 261329Z 15011G17KT 21/19 A30 RMK A01 T02110189  RH  087%=      5-min Rain = 0
KNH1 261330Z 17011KT 21/19 A30 RMK A01 T02110189  RH  087%=      5-min Rain = 0
KNH1 261331Z 16010KT 21/19 A30 RMK A01 T02120189  RH  087%=      5-min Rain = 0
KNH1 261332Z 16015KT 21/19 A30 RMK A01 T02120189  RH  087%=      5-min Rain = 0
KNH1 261333Z 16013G19KT 21/19 A30 RMK A01 T02120188  RH  086%=      5-min Rain = 0
KNH1 261334Z 16015KT 21/19 A30 RMK A01 T02120188  RH  086%=      5-min Rain = 0
KNH1 261335Z 17015G20KT 21/19 A30 RMK A01 T02120188  RH  086%=      5-min Rain = 0
KNH1 261336Z 16015KT 21/19 A30 RMK A01 T02120188  RH  086%=      5-min Rain = 0
KNH1 261337Z 16017KT 21/19 A30 RMK A01 T02120187  RH  086%=      5-min Rain = 0
KNH1 261338Z 17013KT 21/19 A30 RMK A01 T02120188  RH  086%=      5-min Rain = 0
KNH1 261339Z 16015KT 21/19 A30 RMK A01 T02120188  RH  086%=      5-min Rain = 0
KNH1 261340Z 16013KT 21/19 A30 RMK A01 T02120188  RH  086%=      5-min Rain = 0
KNH1 261341Z 16014KT 21/19 A30 RMK A01 T02120188  RH  086%=      5-min Rain = 0
KNH1 261342Z 16016KT 21/19 A3001 RMK A01 T02120187  RH  086%=      5-min Rain = 0
KNH1 261343Z 17012G17KT 21/19 A3001 RMK A01 T02110187  RH  086%=      5-min Rain = 0
KNH1 261344Z 16013G19KT 21/19 A3001 RMK A01 T02120188  RH  087%=      5-min Rain = 0
KNH1 261345Z 16014KT 21/19 A3001 RMK A01 T02110188  RH  086%=      5-min Rain = 0
KNH1 261346Z 16013G18KT 21/19 A3001 RMK A01 T02110188  RH  086%=      5-min Rain = 0
KNH1 261347Z 17010KT 21/19 A3001 RMK A01 T02110188  RH  087%=      5-min Rain = 0
KNH1 261348Z 17010G15KT 21/19 A3001 RMK A01 T02110188  RH  087%=      5-min Rain = 0
KNH1 261349Z 17011KT 21/19 A3001 RMK A01 T02110189  RH  087%=      5-min Rain = 0
KNH1 261350Z 17012G17KT 21/19 A3001 RMK A01 T02110189  RH  087%=      5-min Rain = 0
KNH1 261351Z 17011KT 21/19 A3001 RMK A01 T02110188  RH  087%=      5-min Rain = 0
KNH1 261352Z 16012G18KT 21/19 A3001 RMK A01 T02100188  RH  087%=      5-min Rain = 0
KNH1 261353Z 16012KT 21/19 A3001 RMK A01 T02100188  RH  087%=      5-min Rain = 0
KNH1 261354Z 17010KT 21/19 A3001 RMK A01 T02100189  RH  087%=      5-min Rain = 0
KNH1 261355Z 16010G15KT 21/19 A3001 RMK A01 T02100189  RH  088%=      5-min Rain = 0
KNH1 261356Z 17014G20KT 21/19 A3001 RMK A01 T02100188  RH  087%=      5-min Rain = 0
KNH1 261357Z 16011KT 21/19 A3001 RMK A01 T02100188  RH  087%=      5-min Rain = 0
KNH1 261358Z 15013G19KT 21/19 A3001 RMK A01 T02100189  RH  088%=      5-min Rain = 0
KNH1 261359Z 16012G17KT 21/19 A3002 RMK A01 T02100189  RH  087%=      5-min Rain = 0
KNH1 261400Z 18012KT 21/19 A3002 RMK A01 T02100189  RH  087%=      5-min Rain = 0
KNH1 261401Z 17011G19KT 21/19 A3002 RMK A01 T02100188  RH  087%=      5-min Rain = 0
KNH1 261402Z 16013KT 21/19 A3002 RMK A01 T02100188  RH  087%=      5-min Rain = 0
KNH1 261403Z 17013KT 21/19 A3002 RMK A01 T02100188  RH  087%=      5-min Rain = 0
KNH1 261404Z 17012KT 21/19 A3002 RMK A01 T02100188  RH  087%=      5-min Rain = 0
KNH1 261405Z 16014KT 21/19 A3002 RMK A01 T02100188  RH  087%=      5-min Rain = 0
KNH1 261406Z 17012KT 21/19 A3002 RMK A01 T02100188  RH  087%=      5-min Rain = 0
KNH1 261407Z 17013KT 21/19 A3002 RMK A01 T02110188  RH  087%=      5-min Rain = 0
KNH1 261408Z 16014KT 21/19 A3002 RMK A01 T02100188  RH  087%=      5-min Rain = 0
KNH1 261409Z 17013KT 21/19 A3002 RMK A01 T02100188  RH  087%=      5-min Rain = 0
KNH1 261410Z 17013G18KT 21/19 A3002 RMK A01 T02100188  RH  087%=      5-min Rain = 0
KNH1 261411Z 17010KT 21/19 A3002 RMK A01 T02100188  RH  087%=      5-min Rain = 0
KNH1 261412Z 17014KT 21/19 A3002 RMK A01 T02100188  RH  087%=      5-min Rain = 0
KNH1 261413Z 18013KT 21/19 A3002 RMK A01 T02100188  RH  087%=      5-min Rain = 0
KNH1 261414Z 17011KT 21/19 A3002 RMK A01 T02100187  RH  087%=      5-min Rain = 0
KNH1 261415Z 17014KT 21/19 A3002 RMK A01 T02110188  RH  087%=      5-min Rain = 0
KNH1 261416Z 17014KT 21/19 A3002 RMK A01 T02110187  RH  086%=      5-min Rain = 0
KNH1 261417Z 17011KT 21/19 A3003 RMK A01 T02110187  RH  086%=      5-min Rain = 0
KNH1 261418Z 17013KT 21/19 A3003 RMK A01 T02110187  RH  086%=      5-min Rain = 0
KNH1 261419Z 17012KT 21/19 A3003 RMK A01 T02110187  RH  086%=      5-min Rain = 0
KNH1 261420Z 17010KT 21/19 A3003 RMK A01 T02110188  RH  086%=      5-min Rain = 0
KNH1 261421Z 18011KT 21/19 A3003 RMK A01 T02110188  RH  086%=      5-min Rain = 0
KNH1 261422Z 17012KT 21/19 A3003 RMK A01 T02120188  RH  086%=      5-min Rain = 0
KNH1 261423Z 19013KT 21/19 A3003 RMK A01 T02120188  RH  086%=      5-min Rain = 0
KNH1 261424Z 18010KT 21/19 A3003 RMK A01 T02120187  RH  086%=      5-min Rain = 0
KNH1 261425Z 17011KT 21/19 A3003 RMK A01 T02120188  RH  086%=      5-min Rain = 0
KNH1 261426Z 17009KT 21/19 A3003 RMK A01 T02120188  RH  086%=      5-min Rain = 0
KNH1 261427Z 17011KT 21/19 A3003 RMK A01 T02120189  RH  086%=      5-min Rain = 0
KNH1 261428Z 16011KT 21/19 A3003 RMK A01 T02120189  RH  086%=      5-min Rain = 0
KNH1 261429Z 17010KT 21/19 A3003 RMK A01 T02120189  RH  086%=      5-min Rain = 0
KNH1 261430Z 18016KT 21/19 A3003 RMK A01 T02120188  RH  086%=      5-min Rain = 0
KNH1 261431Z 17013KT 21/19 A3003 RMK A01 T02120188  RH  086%=      5-min Rain = 0
KNH1 261432Z 18015KT 21/19 A3003 RMK A01 T02120188  RH  086%=      5-min Rain = 0
KNH1 261433Z 17014KT 21/19 A3003 RMK A01 T02120188  RH  086%=      5-min Rain = 0
KNH1 261434Z 17012KT 21/19 A3003 RMK A01 T02130188  RH  086%=      5-min Rain = 0
KNH1 261435Z 18011G16KT 21/19 A3003 RMK A01 T02130188  RH  086%=      5-min Rain = 0
KNH1 261436Z 17011KT 21/19 A3003 RMK A01 T02130188  RH  086%=      5-min Rain = 0
KNH1 261437Z 18013KT 21/19 A3003 RMK A01 T02130188  RH  086%=      5-min Rain = 0
KNH1 261438Z 17012G17KT 21/19 A3003 RMK A01 T02130188  RH  086%=      5-min Rain = 0
KNH1 261439Z 17011G17KT 21/19 A3003 RMK A01 T02130188  RH  085%=      5-min Rain = 0
KNH1 261440Z 17012KT 21/19 A3003 RMK A01 T02140188  RH  085%=      5-min Rain = 0
KNH1 261441Z 17015KT 21/19 A3003 RMK A01 T02140188  RH  085%=      5-min Rain = 0
KNH1 261442Z 18012G17KT 21/19 A3003 RMK A01 T02140188  RH  085%=      5-min Rain = 0
KNH1 261443Z 18013KT 21/19 A3003 RMK A01 T02140189  RH  086%=      5-min Rain = 0
KNH1 261444Z 18010G15KT 21/19 A3003 RMK A01 T02140189  RH  085%=      5-min Rain = 0
KNH1 261445Z 18011KT 21/19 A3003 RMK A01 T02140189  RH  086%=      5-min Rain = 0
KNH1 261446Z 17016KT 21/19 A3003 RMK A01 T02140188  RH  085%=      5-min Rain = 0
KNH1 261447Z 17014KT 21/19 A3003 RMK A01 T02140188  RH  085%=      5-min Rain = 0
KNH1 261448Z 18016KT 22/19 A3003 RMK A01 T02150188  RH  085%=      5-min Rain = 0
KNH1 261449Z 18013KT 21/19 A3003 RMK A01 T02140188  RH  085%=      5-min Rain = 0
KNH1 261450Z 18015KT 22/19 A3003 RMK A01 T02150188  RH  085%=      5-min Rain = 0
KNH1 261451Z 18016KT 22/19 A3003 RMK A01 T02150188  RH  085%=      5-min Rain = 0
KNH1 261452Z 18010G15KT 22/19 A3003 RMK A01 T02150188  RH  085%=      5-min Rain = 0
KNH1 261453Z 18010KT 22/19 A3003 RMK A01 T02150189  RH  085%=      5-min Rain = 0
KNH1 261454Z 17012KT 22/19 A3003 RMK A01 T02160188  RH  084%=      5-min Rain = 0
KNH1 261455Z 18012KT 22/19 A3003 RMK A01 T02160188  RH  084%=      5-min Rain = 0
KNH1 261456Z 17011KT 22/19 A3003 RMK A01 T02170189  RH  084%=      5-min Rain = 0
KNH1 261457Z 17010KT 22/19 A3003 RMK A01 T02170188  RH  084%=      5-min Rain = 0
KNH1 261458Z 17011KT 22/19 A3003 RMK A01 T02170188  RH  084%=      5-min Rain = 0
KNH1 261459Z 18014KT 22/19 A3003 RMK A01 T02160187  RH  084%=      5-min Rain = 0
KNH1 261500Z 18012KT 22/19 A3003 RMK A01 T02170187  RH  083%=      5-min Rain = 0
KNH1 261501Z 18015KT 22/19 A3003 RMK A01 T02170187  RH  083%=      5-min Rain = 0
KNH1 261502Z 17013KT 22/19 A3003 RMK A01 T02170188  RH  083%=      5-min Rain = 0
KNH1 261503Z 17013KT 22/19 A3003 RMK A01 T02170188  RH  083%=      5-min Rain = 0
KNH1 261504Z 18013KT 22/19 A3003 RMK A01 T02170188  RH  083%=      5-min Rain = 0
KNH1 261505Z 18013KT 22/19 A3002 RMK A01 T02170187  RH  083%=      5-min Rain = 0
KNH1 261506Z 18012G17KT 22/19 A3002 RMK A01 T02170187  RH  083%=      5-min Rain = 0
KNH1 261507Z 18015KT 22/19 A3002 RMK A01 T02170187  RH  083%=      5-min Rain = 0
KNH1 261508Z 18016KT 22/19 A3002 RMK A01 T02170187  RH  083%=      5-min Rain = 0
KNH1 261509Z 18015KT 22/19 A3002 RMK A01 T02170187  RH  083%=      5-min Rain = 0
KNH1 261510Z 18017KT 22/19 A3002 RMK A01 T02170187  RH  083%=      5-min Rain = 0
KNH1 261511Z 18018KT 22/19 A3002 RMK A01 T02170187  RH  083%=      5-min Rain = 0
KNH1 261512Z 18017KT 22/19 A3002 RMK A01 T02180187  RH  083%=      5-min Rain = 0
KNH1 261513Z 18014G19KT 22/19 A3002 RMK A01 T02180187  RH  083%=      5-min Rain = 0
KNH1 261514Z 18014KT 22/19 A3002 RMK A01 T02180189  RH  083%=      5-min Rain = 0
KNH1 261515Z 18012G19KT 22/19 A3002 RMK A01 T02180189  RH  084%=      5-min Rain = 0
KNH1 261516Z 18016KT 22/19 A3002 RMK A01 T02180188  RH  083%=      5-min Rain = 0
KNH1 261517Z 18015KT 22/19 A3002 RMK A01 T02190189  RH  083%=      5-min Rain = 0
KNH1 261518Z 18014KT 22/19 A3002 RMK A01 T02180188  RH  083%=      5-min Rain = 0
KNH1 261519Z 18014KT 22/19 A3003 RMK A01 T02180189  RH  083%=      5-min Rain = 0
KNH1 261520Z 17014KT 22/19 A3003 RMK A01 T02180188  RH  083%=      5-min Rain = 0
KNH1 261521Z 18012KT 22/19 A3003 RMK A01 T02180188  RH  083%=      5-min Rain = 0
KNH1 261522Z 18011KT 22/19 A3003 RMK A01 T02190189  RH  083%=      5-min Rain = 0
KNH1 261523Z 17011KT 22/19 A3003 RMK A01 T02190190  RH  083%=      5-min Rain = 0
KNH1 261524Z 18014G20KT 22/19 A3003 RMK A01 T02190189  RH  083%=      5-min Rain = 0
KNH1 261525Z 18015KT 22/19 A3002 RMK A01 T02190189  RH  083%=      5-min Rain = 0
KNH1 261526Z 18014KT 22/19 A3002 RMK A01 T02190189  RH  083%=      5-min Rain = 0
KNH1 261527Z 17013KT 22/19 A3002 RMK A01 T02190189  RH  083%=      5-min Rain = 0
KNH1 261528Z 18013KT 22/19 A3002 RMK A01 T02190189  RH  083%=      5-min Rain = 0
KNH1 261529Z 18011G16KT 22/19 A3002 RMK A01 T02190189  RH  083%=      5-min Rain = 0
KNH1 261530Z 18011KT 22/19 A3002 RMK A01 T02200190  RH  083%=      5-min Rain = 0
KNH1 261531Z 17014KT 22/19 A3002 RMK A01 T02200188  RH  082%=      5-min Rain = 0
KNH1 261532Z 18013KT 22/19 A3002 RMK A01 T02200188  RH  082%=      5-min Rain = 0
KNH1 261533Z 18012KT 22/19 A3002 RMK A01 T02200188  RH  082%=      5-min Rain = 0
KNH1 261534Z 17014KT 22/19 A3002 RMK A01 T02200189  RH  082%=      5-min Rain = 0
KNH1 261535Z 16011KT 22/19 A3002 RMK A01 T02200189  RH  083%=      5-min Rain = 0
KNH1 261536Z 16013KT 22/19 A3002 RMK A01 T02200189  RH  083%=      5-min Rain = 0
KNH1 261537Z 17014KT 22/19 A3002 RMK A01 T02200189  RH  082%=      5-min Rain = 0
KNH1 261538Z 17012G17KT 22/19 A3002 RMK A01 T02190189  RH  083%=      5-min Rain = 0
KNH1 261539Z 17014KT 22/19 A3002 RMK A01 T02200188  RH  082%=      5-min Rain = 0
KNH1 261540Z 17014KT 22/19 A3002 RMK A01 T02200188  RH  082%=      5-min Rain = 0
KNH1 261541Z 17017G22KT 22/19 A3002 RMK A01 T02200188  RH  082%=      5-min Rain = 0
KNH1 261542Z 18017G22KT 22/19 A3002 RMK A01 T02200188  RH  082%=      5-min Rain = 0
KNH1 261543Z 18014KT 22/19 A3002 RMK A01 T02200188  RH  082%=      5-min Rain = 0
KNH1 261544Z 17014G19KT 22/19 A3002 RMK A01 T02210188  RH  082%=      5-min Rain = 0
KNH1 261545Z 17013KT 22/19 A3002 RMK A01 T02220187  RH  081%=      5-min Rain = 0
KNH1 261546Z 16013KT 22/19 A3002 RMK A01 T02230188  RH  081%=      5-min Rain = 0
KNH1 261547Z 17012KT 22/19 A3002 RMK A01 T02230188  RH  081%=      5-min Rain = 0
KNH1 261548Z 17010G15KT 22/19 A3002 RMK A01 T02230189  RH  081%=      5-min Rain = 0
KNH1 261549Z 17012KT 22/19 A3002 RMK A01 T02240189  RH  080%=      5-min Rain = 0
KNH1 261550Z 17015KT 23/19 A3002 RMK A01 T02250188  RH  080%=      5-min Rain = 0
KNH1 261551Z 17017KT 23/19 A3002 RMK A01 T02250187  RH  079%=      5-min Rain = 0
KNH1 261552Z 18014KT 22/19 A3002 RMK A01 T02240188  RH  080%=      5-min Rain = 0
KNH1 261553Z 17013KT 22/19 A3002 RMK A01 T02240189  RH  081%=      5-min Rain = 0
KNH1 261554Z 17012G17KT 22/19 A3002 RMK A01 T02240189  RH  081%=      5-min Rain = 0
KNH1 261555Z 17014G21KT 22/19 A3002 RMK A01 T02240189  RH  080%=      5-min Rain = 0
KNH1 261556Z 17014KT 22/19 A3002 RMK A01 T02240188  RH  080%=      5-min Rain = 0
KNH1 261557Z 17016G21KT 22/19 A3002 RMK A01 T02240188  RH  080%=      5-min Rain = 0
KNH1 261558Z 17017G23KT 23/19 A3002 RMK A01 T02250187  RH  079%=      5-min Rain = 0
KNH1 261559Z 17014G19KT 23/19 A3002 RMK A01 T02250187  RH  079%=      5-min Rain = 0
KNH1 261600Z 18015G22KT 23/19 A3002 RMK A01 T02250187  RH  079%=      5-min Rain = 0
KNH1 261601Z 17015G20KT 23/19 A3002 RMK A01 T02250187  RH  079%=      5-min Rain = 0
KNH1 261602Z 17015KT 23/19 A3002 RMK A01 T02250187  RH  079%=      5-min Rain = 0
KNH1 261603Z 18015KT 23/19 A3002 RMK A01 T02250187  RH  079%=      5-min Rain = 0
KNH1 261604Z 18016KT 23/19 A3001 RMK A01 T02260187  RH  079%=      5-min Rain = 0
KNH1 261605Z 18016G21KT 23/19 A3001 RMK A01 T02250187  RH  079%=      5-min Rain = 0
KNH1 261606Z 17016KT 23/19 A3002 RMK A01 T02260187  RH  079%=      5-min Rain = 0
KNH1 261607Z 17017KT 23/19 A3002 RMK A01 T02250187  RH  079%=      5-min Rain = 0
KNH1 261608Z 17014KT 23/19 A3002 RMK A01 T02250187  RH  079%=      5-min Rain = 0
KNH1 261609Z 16017G23KT 23/19 A3002 RMK A01 T02250186  RH  079%=      5-min Rain = 0
KNH1 261610Z 17017KT 23/19 A3002 RMK A01 T02250185  RH  078%=      5-min Rain = 0
KNH1 261611Z 17017KT 23/19 A3002 RMK A01 T02250185  RH  078%=      5-min Rain = 0
KNH1 261612Z 16017KT 23/18 A3002 RMK A01 T02250184  RH  078%=      5-min Rain = 0
KNH1 261613Z 17016G21KT 23/19 A3001 RMK A01 T02250185  RH  078%=      5-min Rain = 0
KNH1 261614Z 17017KT 23/19 A3001 RMK A01 T02250185  RH  078%=      5-min Rain = 0
KNH1 261615Z 17015KT 23/19 A3002 RMK A01 T02250185  RH  078%=      5-min Rain = 0
KNH1 261616Z 16014KT 23/19 A3002 RMK A01 T02250185  RH  078%=      5-min Rain = 0
KNH1 261617Z 17016KT 23/19 A3002 RMK A01 T02250185  RH  078%=      5-min Rain = 0
KNH1 261618Z 17017KT 23/19 A3002 RMK A01 T02260185  RH  078%=      5-min Rain = 0
KNH1 261619Z 16016G21KT 23/19 A3002 RMK A01 T02260185  RH  078%=      5-min Rain = 0
KNH1 261620Z 17016G21KT 23/19 A3002 RMK A01 T02260185  RH  078%=      5-min Rain = 0
KNH1 261621Z 17016G21KT 23/18 A3002 RMK A01 T02250184  RH  077%=      5-min Rain = 0
KNH1 261622Z 16014KT 23/18 A3002 RMK A01 T02250183  RH  077%=      5-min Rain = 0
KNH1 261623Z 17016G23KT 23/18 A3002 RMK A01 T02260184  RH  077%=      5-min Rain = 0
KNH1 261624Z 17018KT 23/18 A3002 RMK A01 T02260184  RH  077%=      5-min Rain = 0
KNH1 261625Z 16018KT 23/18 A3002 RMK A01 T02260183  RH  077%=      5-min Rain = 0
KNH1 261626Z 17018G23KT 23/18 A3002 RMK A01 T02260183  RH  077%=      5-min Rain = 0
KNH1 261627Z 17013KT 23/18 A3002 RMK A01 T02260184  RH  077%=      5-min Rain = 0
KNH1 261628Z 17017KT 23/18 A3002 RMK A01 T02260184  RH  077%=      5-min Rain = 0
KNH1 261629Z 17018KT 23/18 A3002 RMK A01 T02270184  RH  077%=      5-min Rain = 0
KNH1 261630Z 17019G25KT 23/18 A3002 RMK A01 T02260184  RH  077%=      5-min Rain = 0
KNH1 261631Z 18019KT 23/18 A3002 RMK A01 T02260184  RH  077%=      5-min Rain = 0
KNH1 261632Z 18017KT 23/18 A3002 RMK A01 T02260183  RH  077%=      5-min Rain = 0
KNH1 261633Z 17019KT 23/18 A3002 RMK A01 T02260183  RH  077%=      5-min Rain = 0
KNH1 261634Z 17014KT 23/18 A3002 RMK A01 T02250183  RH  077%=      5-min Rain = 0
KNH1 261635Z 17016G22KT 23/18 A3002 RMK A01 T02260184  RH  077%=      5-min Rain = 0
KNH1 261636Z 17016KT 23/18 A3002 RMK A01 T02260183  RH  077%=      5-min Rain = 0
KNH1 261637Z 17016KT 23/18 A3002 RMK A01 T02260183  RH  077%=      5-min Rain = 0
KNH1 261638Z 18017KT 23/18 A3002 RMK A01 T02260183  RH  077%=      5-min Rain = 0
KNH1 261639Z 18018KT 23/18 A3002 RMK A01 T02270183  RH  076%=      5-min Rain = 0
KNH1 261640Z 17017KT 23/18 A3002 RMK A01 T02260183  RH  076%=      5-min Rain = 0
KNH1 261641Z 17015G20KT 23/18 A3002 RMK A01 T02260183  RH  077%=      5-min Rain = 0
KNH1 261642Z 17014KT 23/18 A3002 RMK A01 T02260183  RH  077%=      5-min Rain = 0
KNH1 261643Z 18016KT 23/18 A3003 RMK A01 T02270184  RH  076%=      5-min Rain = 0
KNH1 261644Z 17019KT 23/18 A3003 RMK A01 T02270183  RH  076%=      5-min Rain = 0
KNH1 261645Z 17016G21KT 23/18 A3003 RMK A01 T02270181  RH  076%=      5-min Rain = 0
KNH1 261646Z 17015G20KT 23/18 A3003 RMK A01 T02260182  RH  076%=      5-min Rain = 0
KNH1 261647Z 17019KT 23/18 A3003 RMK A01 T02260182  RH  076%=      5-min Rain = 0
KNH1 261648Z 17016G22KT 23/18 A3003 RMK A01 T02260182  RH  076%=      5-min Rain = 0
KNH1 261649Z 17014KT 23/18 A3003 RMK A01 T02270182  RH  076%=      5-min Rain = 0
KNH1 261650Z 18018G23KT 23/18 A3002 RMK A01 T02270182  RH  075%=      5-min Rain = 0
KNH1 261651Z 18018KT 23/18 A3002 RMK A01 T02270182  RH  075%=      5-min Rain = 0
KNH1 261652Z 18018KT 23/18 A3002 RMK A01 T02270181  RH  075%=      5-min Rain = 0
KNH1 261653Z 18017KT 23/18 A3002 RMK A01 T02270182  RH  076%=      5-min Rain = 0
KNH1 261654Z 18015KT 23/18 A3002 RMK A01 T02270182  RH  076%=      5-min Rain = 0
KNH1 261655Z 17015G21KT 23/18 A3002 RMK A01 T02270182  RH  076%=      5-min Rain = 0
KNH1 261656Z 17016KT 23/18 A3002 RMK A01 T02270182  RH  076%=      5-min Rain = 0
KNH1 261657Z 18016KT 23/18 A3002 RMK A01 T02270182  RH  076%=      5-min Rain = 0
KNH1 261658Z 18012KT 23/18 A3002 RMK A01 T02260183  RH  076%=      5-min Rain = 0
KNH1 261659Z 17017KT 23/18 A3002 RMK A01 T02280183  RH  076%=      5-min Rain = 0
KNH1 261700Z 18016KT 23/18 A3002 RMK A01 T02280182  RH  075%=      5-min Rain = 0
KNH1 261701Z 17013KT 23/18 A3002 RMK A01 T02280183  RH  076%=      5-min Rain = 0
KNH1 261702Z 17015G20KT 23/18 A3002 RMK A01 T02280182  RH  075%=      5-min Rain = 0
KNH1 261703Z 17015KT 23/18 A3002 RMK A01 T02280182  RH  075%=      5-min Rain = 0
KNH1 261704Z 17014KT 23/18 A3002 RMK A01 T02280182  RH  075%=      5-min Rain = 0
KNH1 261705Z 16013KT 23/18 A3002 RMK A01 T02280183  RH  075%=      5-min Rain = 0
KNH1 261706Z 16015KT 23/18 A3002 RMK A01 T02280182  RH  075%=      5-min Rain = 0
KNH1 261707Z 17014KT 23/18 A3002 RMK A01 T02290181  RH  075%=      5-min Rain = 0
KNH1 261708Z 17014G20KT 23/18 A3002 RMK A01 T02290182  RH  075%=      5-min Rain = 0
KNH1 261709Z 17015KT 23/18 A3002 RMK A01 T02290183  RH  075%=      5-min Rain = 0
KNH1 261710Z 17016G22KT 23/18 A3002 RMK A01 T02290183  RH  075%=      5-min Rain = 0
KNH1 261711Z 17012KT 23/18 A3002 RMK A01 T02290183  RH  075%=      5-min Rain = 0
KNH1 261712Z 18013KT 23/18 A3002 RMK A01 T02290183  RH  075%=      5-min Rain = 0
KNH1 261713Z 17016KT 23/18 A3002 RMK A01 T02300183  RH  075%=      5-min Rain = 0
KNH1 261714Z 17016KT 23/18 A3002 RMK A01 T02290183  RH  075%=      5-min Rain = 0
KNH1 261715Z 18014KT 23/18 A3002 RMK A01 T02300184  RH  075%=      5-min Rain = 0
KNH1 261716Z 18017G22KT 23/18 A3002 RMK A01 T02300183  RH  075%=      5-min Rain = 0
KNH1 261717Z 18013KT 23/18 A3002 RMK A01 T02310183  RH  074%=      5-min Rain = 0
KNH1 261718Z 16013KT 23/18 A3002 RMK A01 T02310184  RH  075%=      5-min Rain = 0
KNH1 261719Z 16012G17KT 23/19 A3002 RMK A01 T02320185  RH  075%=      5-min Rain = 0
KNH1 261720Z 17014KT 23/19 A3002 RMK A01 T02310185  RH  075%=      5-min Rain = 0
KNH1 261721Z 18013KT 23/19 A3002 RMK A01 T02300185  RH  076%=      5-min Rain = 0
KNH1 261722Z 17014KT 23/19 A3002 RMK A01 T02300185  RH  076%=      5-min Rain = 0
KNH1 261723Z 17016KT 23/19 A3002 RMK A01 T02300185  RH  076%=      5-min Rain = 0
KNH1 261724Z 17011KT 23/19 A3002 RMK A01 T02290185  RH  076%=      5-min Rain = 0
KNH1 261725Z 16013KT 23/19 A3002 RMK A01 T02290185  RH  076%=      5-min Rain = 0
KNH1 261726Z 17012KT 23/19 A3002 RMK A01 T02290185  RH  076%=      5-min Rain = 0
KNH1 261727Z 18012KT 23/19 A3002 RMK A01 T02300186  RH  076%=      5-min Rain = 0
KNH1 261728Z 16013KT 23/19 A3002 RMK A01 T02310186  RH  076%=      5-min Rain = 0
KNH1 261729Z 18014KT 23/19 A3002 RMK A01 T02310185  RH  075%=      5-min Rain = 0
KNH1 261730Z 16011KT 23/19 A3002 RMK A01 T02300185  RH  076%=      5-min Rain = 0
KNH1 261731Z 17010KT 23/19 A3002 RMK A01 T02300186  RH  076%=      5-min Rain = 0
KNH1 261732Z 17014KT 23/19 A3002 RMK A01 T02310187  RH  076%=      5-min Rain = 0
KNH1 261733Z 17013KT 23/19 A3002 RMK A01 T02310186  RH  075%=      5-min Rain = 0
KNH1 261734Z 17014KT 23/19 A3002 RMK A01 T02310186  RH  076%=      5-min Rain = 0
KNH1 261735Z 17015KT 23/19 A3002 RMK A01 T02310186  RH  076%=      5-min Rain = 0
KNH1 261736Z 18017KT 23/19 A3002 RMK A01 T02310185  RH  075%=      5-min Rain = 0
KNH1 261737Z 19014G19KT 23/19 A3002 RMK A01 T02310185  RH  075%=      5-min Rain = 0
KNH1 261738Z 18015KT 23/19 A3002 RMK A01 T02320185  RH  075%=      5-min Rain = 0
KNH1 261739Z 17011G18KT 23/19 A3002 RMK A01 T02320186  RH  075%=      5-min Rain = 0
KNH1 261740Z 17012KT 23/19 A3002 RMK A01 T02330185  RH  075%=      5-min Rain = 0
KNH1 261741Z 17013KT 23/19 A3002 RMK A01 T02330186  RH  075%=      5-min Rain = 0
KNH1 261742Z 17014G19KT 23/19 A3002 RMK A01 T02330185  RH  074%=      5-min Rain = 0
KNH1 261743Z 17013G18KT 23/18 A3002 RMK A01 T02320184  RH  074%=      5-min Rain = 0
KNH1 261744Z 17013KT 23/18 A3002 RMK A01 T02310184  RH  075%=      5-min Rain = 0
KNH1 261745Z 18014KT 23/18 A3002 RMK A01 T02310184  RH  075%=      5-min Rain = 0
KNH1 261746Z 17014G20KT 23/19 A3002 RMK A01 T02310185  RH  075%=      5-min Rain = 0
KNH1 261747Z 17015KT 23/18 A3002 RMK A01 T02310184  RH  075%=      5-min Rain = 0
KNH1 261748Z 17016G22KT 23/18 A3002 RMK A01 T02300184  RH  075%=      5-min Rain = 0
KNH1 261749Z 17017G23KT 23/18 A3002 RMK A01 T02300183  RH  075%=      5-min Rain = 0
KNH1 261750Z 17015G20KT 23/18 A3002 RMK A01 T02300184  RH  075%=      5-min Rain = 0
KNH1 261751Z 17014KT 23/18 A3002 RMK A01 T02300184  RH  076%=      5-min Rain = 0
KNH1 261752Z 17012KT 23/18 A3002 RMK A01 T02300184  RH  076%=      5-min Rain = 0
KNH1 261753Z 17016KT 23/19 A3002 RMK A01 T02300185  RH  075%=      5-min Rain = 0
KNH1 261754Z 17015KT 23/18 A3002 RMK A01 T02300184  RH  075%=      5-min Rain = 0
KNH1 261755Z 17013G19KT 23/19 A3002 RMK A01 T02300185  RH  076%=      5-min Rain = 0
KNH1 261756Z 16014KT 23/19 A3002 RMK A01 T02300185  RH  076%=      5-min Rain = 0
KNH1 261757Z 17013KT 23/19 A3002 RMK A01 T02300185  RH  076%=      5-min Rain = 0
KNH1 261758Z 16013G18KT 23/19 A3002 RMK A01 T02300185  RH  076%=      5-min Rain = 0
KNH1 261759Z 17015KT 23/19 A3002 RMK A01 T02300185  RH  076%=      5-min Rain = 0
KNH1 261800Z 16015KT 23/19 A3002 RMK A01 T02300185  RH  076%=      5-min Rain = 0
KNH1 261801Z 17014G19KT 23/19 A3002 RMK A01 T02290185  RH  076%=      5-min Rain = 0
KNH1 261802Z 17014KT 23/19 A3002 RMK A01 T02290186  RH  076%=      5-min Rain = 0
KNH1 261803Z 16016KT 23/19 A3002 RMK A01 T02290185  RH  076%=      5-min Rain = 0
KNH1 261804Z 16015KT 23/19 A3002 RMK A01 T02290185  RH  076%=      5-min Rain = 0
KNH1 261805Z 16015KT 23/19 A3002 RMK A01 T02290185  RH  076%=      5-min Rain = 0
KNH1 261806Z 16015KT 23/18 A3002 RMK A01 T02280184  RH  076%=      5-min Rain = 0
KNH1 261807Z 16014G19KT 23/19 A3002 RMK A01 T02280185  RH  077%=      5-min Rain = 0
KNH1 261808Z 17014KT 23/19 A3001 RMK A01 T02280185  RH  077%=      5-min Rain = 0
KNH1 261809Z 16011G17KT 23/19 A3001 RMK A01 T02290185  RH  077%=      5-min Rain = 0
KNH1 261810Z 16018KT 23/19 A3001 RMK A01 T02290186  RH  076%=      5-min Rain = 0
KNH1 261811Z 16015KT 23/19 A3002 RMK A01 T02300185  RH  076%=      5-min Rain = 0
KNH1 261812Z 16015G20KT 23/19 A3002 RMK A01 T02300185  RH  076%=      5-min Rain = 0
KNH1 261813Z 17012KT 23/19 A3002 RMK A01 T02300185  RH  076%=      5-min Rain = 0
KNH1 261814Z 18016KT 23/19 A3002 RMK A01 T02300185  RH  076%=      5-min Rain = 0
KNH1 261815Z 18013KT 23/19 A3002 RMK A01 T02310186  RH  076%=      5-min Rain = 0
KNH1 261816Z 18015G20KT 23/19 A3002 RMK A01 T02300186  RH  076%=      5-min Rain = 0
KNH1 261817Z 18018KT 23/19 A3002 RMK A01 T02310185  RH  076%=      5-min Rain = 0
KNH1 261818Z 17017KT 23/19 A3002 RMK A01 T02300185  RH  076%=      5-min Rain = 0
KNH1 261819Z 17015KT 23/19 A3002 RMK A01 T02300186  RH  076%=      5-min Rain = 0
KNH1 261820Z 17013KT 23/19 A3002 RMK A01 T02300186  RH  076%=      5-min Rain = 0
KNH1 261821Z 17015KT 23/19 A3002 RMK A01 T02300186  RH  076%=      5-min Rain = 0
KNH1 261822Z 16015KT 23/19 A3002 RMK A01 T02300186  RH  076%=      5-min Rain = 0
KNH1 261823Z 16014KT 23/19 A3002 RMK A01 T02290186  RH  076%=      5-min Rain = 0
KNH1 261824Z 17013KT 23/19 A3002 RMK A01 T02300186  RH  076%=      5-min Rain = 0
KNH1 261825Z 17014KT 23/19 A3002 RMK A01 T02290187  RH  077%=      5-min Rain = 0
KNH1 261826Z 18016KT 23/19 A3002 RMK A01 T02300186  RH  076%=      5-min Rain = 0
KNH1 261827Z 18017KT 23/19 A3002 RMK A01 T02310186  RH  076%=      5-min Rain = 0
KNH1 261828Z 18014G19KT 23/19 A3002 RMK A01 T02310186  RH  076%=      5-min Rain = 0
KNH1 261829Z 18014G19KT 23/19 A3002 RMK A01 T02320187  RH  076%=      5-min Rain = 0
KNH1 261830Z 18015KT 23/19 A3002 RMK A01 T02320186  RH  076%=      5-min Rain = 0
KNH1 261831Z 18016KT 23/19 A3002 RMK A01 T02310186  RH  075%=      5-min Rain = 0
KNH1 261832Z 17013G18KT 23/19 A3002 RMK A01 T02310186  RH  076%=      5-min Rain = 0
KNH1 261833Z 18013G18KT 23/19 A3002 RMK A01 T02310186  RH  076%=      5-min Rain = 0
KNH1 261834Z 18017KT 23/19 A3002 RMK A01 T02310186  RH  076%=      5-min Rain = 0
KNH1 261835Z 19015KT 23/19 A3002 RMK A01 T02310187  RH  076%=      5-min Rain = 0
KNH1 261836Z 18016G21KT 23/19 A3002 RMK A01 T02320188  RH  076%=      5-min Rain = 0
KNH1 261837Z 18016KT 23/19 A3002 RMK A01 T02340187  RH  075%=      5-min Rain = 0
KNH1 261838Z 18016KT 23/19 A3002 RMK A01 T02330187  RH  075%=      5-min Rain = 0
KNH1 261839Z 17010KT 23/19 A3002 RMK A01 T02330188  RH  076%=      5-min Rain = 0
KNH1 261840Z 17013KT 23/19 A3002 RMK A01 T02330188  RH  076%=      5-min Rain = 0
KNH1 261841Z 18013KT 23/19 A3002 RMK A01 T02330188  RH  076%=      5-min Rain = 0
KNH1 261842Z 18014G21KT 23/19 A3002 RMK A01 T02340188  RH  076%=      5-min Rain = 0
KNH1 261843Z 18018KT 23/19 A3003 RMK A01 T02340187  RH  075%=      5-min Rain = 0
KNH1 261844Z 18017KT 23/19 A3003 RMK A01 T02330187  RH  075%=      5-min Rain = 0
KNH1 261845Z 18016KT 23/19 A3003 RMK A01 T02330188  RH  076%=      5-min Rain = 0
KNH1 261846Z 18013KT 23/19 A3003 RMK A01 T02330188  RH  076%=      5-min Rain = 0
KNH1 261847Z 18012KT 23/19 A3003 RMK A01 T02330189  RH  076%=      5-min Rain = 0
KNH1 261848Z 18016KT 23/19 A3003 RMK A01 T02330188  RH  076%=      5-min Rain = 0
KNH1 261849Z 18013G18KT 23/19 A3003 RMK A01 T02320188  RH  076%=      5-min Rain = 0
KNH1 261850Z 18016G21KT 23/19 A3003 RMK A01 T02320187  RH  076%=      5-min Rain = 0
KNH1 261851Z 18017KT 23/19 A3003 RMK A01 T02320187  RH  076%=      5-min Rain = 0
KNH1 261852Z 19015KT 23/19 A3003 RMK A01 T02320187  RH  076%=      5-min Rain = 0
KNH1 261853Z 18015KT 23/19 A3003 RMK A01 T02310187  RH  076%=      5-min Rain = 0
KNH1 261854Z 18012KT 23/19 A3003 RMK A01 T02320188  RH  076%=      5-min Rain = 0
KNH1 261855Z 19016KT 23/19 A3003 RMK A01 T02320188  RH  076%=      5-min Rain = 0
KNH1 261856Z 19016KT 23/19 A3003 RMK A01 T02320188  RH  076%=      5-min Rain = 0
KNH1 261857Z 18014KT 23/19 A3003 RMK A01 T02320188  RH  076%=      5-min Rain = 0
KNH1 261858Z 18016KT 23/19 A3003 RMK A01 T02320187  RH  076%=      5-min Rain = 0
KNH1 261859Z 19013KT 23/19 A3003 RMK A01 T02320187  RH  076%=      5-min Rain = 0
KNH1 261900Z 19012G17KT 23/19 A3003 RMK A01 T02320188  RH  076%=      5-min Rain = 0
KNH1 261901Z 18015KT 23/19 A3003 RMK A01 T02330189  RH  076%=      5-min Rain = 0
KNH1 261902Z 18015KT 23/19 A3003 RMK A01 T02330188  RH  076%=      5-min Rain = 0
KNH1 261903Z 18013KT 23/19 A3003 RMK A01 T02330188  RH  076%=      5-min Rain = 0
KNH1 261904Z 17013KT 23/19 A3003 RMK A01 T02320188  RH  076%=      5-min Rain = 0
KNH1 261905Z 18013KT 23/19 A3003 RMK A01 T02310188  RH  077%=      5-min Rain = 0
KNH1 261906Z 18014KT 23/19 A3003 RMK A01 T02310188  RH  077%=      5-min Rain = 0
KNH1 261907Z 18013G18KT 23/19 A3003 RMK A01 T02310189  RH  077%=      5-min Rain = 0
KNH1 261908Z 17015KT 23/19 A3003 RMK A01 T02310188  RH  076%=      5-min Rain = 0
KNH1 261909Z 17015KT 23/19 A3003 RMK A01 T02310188  RH  076%=      5-min Rain = 0
KNH1 261910Z 18016KT 23/19 A3003 RMK A01 T02300188  RH  077%=      5-min Rain = 0
KNH1 261911Z 18015KT 23/19 A3003 RMK A01 T02310188  RH  077%=      5-min Rain = 0
KNH1 261912Z 18015KT 23/19 A3003 RMK A01 T02320189  RH  077%=      5-min Rain = 0
KNH1 261913Z 18012KT 23/19 A3003 RMK A01 T02330189  RH  076%=      5-min Rain = 0
KNH1 261914Z 18012KT 23/19 A3003 RMK A01 T02340190  RH  076%=      5-min Rain = 0
KNH1 261915Z 18011KT 24/19 A3003 RMK A01 T02350190  RH  076%=      5-min Rain = 0
KNH1 261916Z 18014KT 24/19 A3003 RMK A01 T02370190  RH  075%=      5-min Rain = 0
KNH1 261917Z 18016KT 24/19 A3003 RMK A01 T02370189  RH  075%=      5-min Rain = 0
KNH1 261918Z 19017KT 24/19 A3003 RMK A01 T02370189  RH  074%=      5-min Rain = 0
KNH1 261919Z 18017KT 24/19 A3003 RMK A01 T02370189  RH  075%=      5-min Rain = 0
KNH1 261920Z 18014KT 24/19 A3003 RMK A01 T02360189  RH  075%=      5-min Rain = 0
KNH1 261921Z 18012KT 24/19 A3003 RMK A01 T02360191  RH  076%=      5-min Rain = 0
KNH1 261922Z 18013G18KT 24/19 A3003 RMK A01 T02380191  RH  075%=      5-min Rain = 0
KNH1 261923Z 16013KT 24/19 A3003 RMK A01 T02380190  RH  074%=      5-min Rain = 0
KNH1 261924Z 17015KT 24/19 A3003 RMK A01 T02380189  RH  074%=      5-min Rain = 0
KNH1 261925Z 18013G18KT 24/19 A3003 RMK A01 T02360190  RH  075%=      5-min Rain = 0
KNH1 261926Z 18015KT 24/19 A3003 RMK A01 T02360190  RH  075%=      5-min Rain = 0
KNH1 261927Z 18015KT 24/19 A3003 RMK A01 T02360190  RH  075%=      5-min Rain = 0
KNH1 261928Z 18014KT 24/19 A3003 RMK A01 T02360189  RH  075%=      5-min Rain = 0
KNH1 261929Z 17013KT 24/19 A3003 RMK A01 T02350190  RH  075%=      5-min Rain = 0
KNH1 261930Z 18012KT 24/19 A3003 RMK A01 T02360190  RH  076%=      5-min Rain = 0
KNH1 261931Z 18015KT 24/19 A3002 RMK A01 T02360189  RH  075%=      5-min Rain = 0
KNH1 261932Z 18014KT 24/19 A3002 RMK A01 T02360189  RH  075%=      5-min Rain = 0
KNH1 261933Z 18013G18KT 24/19 A3002 RMK A01 T02360189  RH  075%=      5-min Rain = 0
KNH1 261934Z 18013G19KT 24/19 A3002 RMK A01 T02360189  RH  075%=      5-min Rain = 0
KNH1 261935Z 18014KT 24/19 A3002 RMK A01 T02360190  RH  075%=      5-min Rain = 0
KNH1 261936Z 18014KT 24/19 A3002 RMK A01 T02370189  RH  075%=      5-min Rain = 0
KNH1 261937Z 17012KT 24/19 A3002 RMK A01 T02370190  RH  075%=      5-min Rain = 0
KNH1 261938Z 17011KT 24/19 A3002 RMK A01 T02370190  RH  075%=      5-min Rain = 0
KNH1 261939Z 17014KT 24/19 A3002 RMK A01 T02360191  RH  076%=      5-min Rain = 0
KNH1 261940Z 17012KT 24/19 A3002 RMK A01 T02360191  RH  076%=      5-min Rain = 0
KNH1 261941Z 17011KT 24/19 A3002 RMK A01 T02360191  RH  076%=      5-min Rain = 0
KNH1 261942Z 17009KT 24/19 A3002 RMK A01 T02360191  RH  076%=      5-min Rain = 0
KNH1 261943Z 17010KT 24/19 A3002 RMK A01 T02370191  RH  076%=      5-min Rain = 0
KNH1 261944Z 17013KT 24/19 A3002 RMK A01 T02370191  RH  075%=      5-min Rain = 0
KNH1 261945Z 17013KT 24/19 A3002 RMK A01 T02370191  RH  075%=      5-min Rain = 0
KNH1 261946Z 17012KT 24/19 A3002 RMK A01 T02370191  RH  075%=      5-min Rain = 0
KNH1 261947Z 18012G17KT 24/19 A3002 RMK A01 T02370190  RH  075%=      5-min Rain = 0
KNH1 261948Z 17011KT 24/19 A3002 RMK A01 T02370191  RH  075%=      5-min Rain = 0
KNH1 261949Z 17011KT 24/19 A3002 RMK A01 T02370191  RH  075%=      5-min Rain = 0
KNH1 261950Z 18012KT 24/19 A3001 RMK A01 T02370191  RH  075%=      5-min Rain = 0
KNH1 261951Z 17012G17KT 24/19 A3001 RMK A01 T02370191  RH  075%=      5-min Rain = 0
KNH1 261952Z 18014KT 24/19 A3001 RMK A01 T02380191  RH  075%=      5-min Rain = 0
KNH1 261953Z 17012KT 24/19 A3001 RMK A01 T02380191  RH  075%=      5-min Rain = 0
KNH1 261954Z 17013KT 24/19 A3002 RMK A01 T02390191  RH  075%=      5-min Rain = 0
KNH1 261955Z 18014KT 24/19 A3002 RMK A01 T02380191  RH  075%=      5-min Rain = 0
KNH1 261956Z 18013G18KT 24/19 A3002 RMK A01 T02380191  RH  075%=      5-min Rain = 0
KNH1 261957Z 18015KT 24/19 A3001 RMK A01 T02390190  RH  074%=      5-min Rain = 0
KNH1 261958Z 17013KT 24/19 A3001 RMK A01 T02390191  RH  074%=      5-min Rain = 0
KNH1 261959Z 17013KT 24/19 A3001 RMK A01 T02390191  RH  074%=      5-min Rain = 0
KNH1 262000Z 18014KT 24/19 A3001 RMK A01 T02390190  RH  074%=      5-min Rain = 0
KNH1 262001Z 18011KT 24/19 A3001 RMK A01 T02390191  RH  075%=      5-min Rain = 0
KNH1 262002Z 18011KT 24/19 A3001 RMK A01 T02390190  RH  074%=      5-min Rain = 0
KNH1 262003Z 17011KT 24/19 A3001 RMK A01 T02400192  RH  074%=      5-min Rain = 0
KNH1 262004Z 17013KT 24/19 A3001 RMK A01 T02400191  RH  074%=      5-min Rain = 0
KNH1 262005Z 17013G18KT 24/19 A3001 RMK A01 T02400190  RH  074%=      5-min Rain = 0
KNH1 262006Z 17013KT 24/19 A3001 RMK A01 T02390190  RH  074%=      5-min Rain = 0
KNH1 262007Z 17013KT 24/19 A3001 RMK A01 T02390191  RH  075%=      5-min Rain = 0
KNH1 262008Z 18011KT 24/19 A3001 RMK A01 T02390191  RH  075%=      5-min Rain = 0
KNH1 262009Z 17012KT 24/19 A3001 RMK A01 T02400191  RH  074%=      5-min Rain = 0
KNH1 262010Z 16011G16KT 24/19 A3001 RMK A01 T02410191  RH  074%=      5-min Rain = 0
KNH1 262011Z 17013KT 24/19 A3001 RMK A01 T02400191  RH  074%=      5-min Rain = 0
KNH1 262012Z 16011KT 24/19 A3001 RMK A01 T02400190  RH  074%=      5-min Rain = 0
KNH1 262013Z 17011KT 24/19 A3001 RMK A01 T02400190  RH  074%=      5-min Rain = 0
KNH1 262014Z 17012KT 24/19 A3001 RMK A01 T02400191  RH  074%=      5-min Rain = 0
KNH1 262015Z 17011G16KT 24/19 A3001 RMK A01 T02400190  RH  074%=      5-min Rain = 0
KNH1 262016Z 17013KT 24/19 A3001 RMK A01 T02400190  RH  074%=      5-min Rain = 0
KNH1 262017Z 17013KT 24/19 A3001 RMK A01 T02400191  RH  074%=      5-min Rain = 0
KNH1 262018Z 17012KT 24/19 A30 RMK A01 T02400190  RH  074%=      5-min Rain = 0
KNH1 262019Z 17010KT 24/19 A30 RMK A01 T02400190  RH  073%=      5-min Rain = 0
KNH1 262020Z 16011KT 24/19 A30 RMK A01 T02410190  RH  073%=      5-min Rain = 0
KNH1 262021Z 16013G18KT 24/19 A30 RMK A01 T02410190  RH  073%=      5-min Rain = 0
KNH1 262022Z 15013G18KT 24/19 A2999 RMK A01 T02410190  RH  073%=      5-min Rain = 0
KNH1 262023Z 16013KT 24/19 A2999 RMK A01 T02410189  RH  073%=      5-min Rain = 0
KNH1 262024Z 16014KT 24/19 A2999 RMK A01 T02410189  RH  073%=      5-min Rain = 0
KNH1 262025Z 17011G16KT 24/19 A2999 RMK A01 T02410190  RH  073%=      5-min Rain = 0
KNH1 262026Z 16014KT 24/19 A2999 RMK A01 T02420190  RH  073%=      5-min Rain = 0
KNH1 262027Z 15012G18KT 24/19 A2999 RMK A01 T02420190  RH  073%=      5-min Rain = 0
KNH1 262028Z 15013KT 24/19 A2999 RMK A01 T02420190  RH  073%=      5-min Rain = 0
KNH1 262029Z 15012G17KT 24/19 A2999 RMK A01 T02420190  RH  073%=      5-min Rain = 0
KNH1 262030Z 15015KT 24/19 A2999 RMK A01 T02410190  RH  073%=      5-min Rain = 0
KNH1 262031Z 17013KT 24/19 A2999 RMK A01 T02420190  RH  073%=      5-min Rain = 0
KNH1 262032Z 17012G17KT 24/19 A2999 RMK A01 T02420190  RH  073%=      5-min Rain = 0
KNH1 262033Z 17012KT 24/19 A2999 RMK A01 T02430191  RH  073%=      5-min Rain = 0
KNH1 262034Z 17012KT 24/19 A2999 RMK A01 T02430191  RH  072%=      5-min Rain = 0
KNH1 262035Z 17012G17KT 24/19 A2999 RMK A01 T02440191  RH  072%=      5-min Rain = 0
KNH1 262036Z 17012KT 24/19 A2999 RMK A01 T02440191  RH  072%=      5-min Rain = 0
KNH1 262037Z 16011KT 24/19 A2999 RMK A01 T02440191  RH  072%=      5-min Rain = 0
KNH1 262038Z 16014KT 25/19 A2999 RMK A01 T02450191  RH  072%=      5-min Rain = 0
KNH1 262039Z 17011KT 25/19 A2999 RMK A01 T02450192  RH  072%=      5-min Rain = 0
KNH1 262040Z 17016KT 25/19 A2999 RMK A01 T02460192  RH  072%=      5-min Rain = 0
KNH1 262041Z 18014KT 25/19 A2999 RMK A01 T02460191  RH  071%=      5-min Rain = 0
KNH1 262042Z 18014KT 25/19 A2999 RMK A01 T02460190  RH  071%=      5-min Rain = 0
KNH1 262043Z 16016G21KT 25/19 A2999 RMK A01 T02460190  RH  071%=      5-min Rain = 0
KNH1 262044Z 17014KT 25/19 A2999 RMK A01 T02460190  RH  071%=      5-min Rain = 0
KNH1 262045Z 18014G19KT 25/19 A2999 RMK A01 T02450190  RH  072%=      5-min Rain = 0
KNH1 262046Z 18014KT 25/19 A2999 RMK A01 T02450190  RH  071%=      5-min Rain = 0
KNH1 262047Z 18015KT 25/19 A2999 RMK A01 T02450190  RH  071%=      5-min Rain = 0
KNH1 262048Z 18015KT 25/19 A2999 RMK A01 T02450190  RH  071%=      5-min Rain = 0
KNH1 262049Z 17014KT 25/19 A2999 RMK A01 T02450190  RH  071%=      5-min Rain = 0
KNH1 262050Z 17012KT 24/19 A2999 RMK A01 T02440190  RH  072%=      5-min Rain = 0
KNH1 262051Z 16011KT 25/19 A2999 RMK A01 T02450191  RH  072%=      5-min Rain = 0
KNH1 262052Z 17013KT 25/19 A2998 RMK A01 T02450191  RH  071%=      5-min Rain = 0
KNH1 262053Z 16011KT 25/19 A2998 RMK A01 T02460190  RH  071%=      5-min Rain = 0
KNH1 262054Z 15012G18KT 25/19 A2998 RMK A01 T02460190  RH  071%=      5-min Rain = 0
KNH1 262055Z 15013G19KT 25/19 A2998 RMK A01 T02460189  RH  071%=      5-min Rain = 0
KNH1 262056Z 16013KT 25/19 A2998 RMK A01 T02460189  RH  071%=      5-min Rain = 0
KNH1 262057Z 15012G17KT 25/19 A2998 RMK A01 T02450190  RH  071%=      5-min Rain = 0
KNH1 262058Z 16015KT 25/19 A2997 RMK A01 T02450190  RH  071%=      5-min Rain = 0
KNH1 262059Z 16017KT 25/19 A2997 RMK A01 T02450189  RH  071%=      5-min Rain = 0
KNH1 262100Z 15013KT 25/19 A2997 RMK A01 T02450189  RH  071%=      5-min Rain = 0
KNH1 262101Z 15010KT 25/19 A2997 RMK A01 T02450190  RH  071%=      5-min Rain = 0
KNH1 262102Z 14014G19KT 25/19 A2997 RMK A01 T02450190  RH  071%=      5-min Rain = 0
KNH1 262103Z 16011KT 25/19 A2997 RMK A01 T02450189  RH  071%=      5-min Rain = 0
KNH1 262104Z 15012G17KT 25/19 A2997 RMK A01 T02450190  RH  071%=      5-min Rain = 0
KNH1 262105Z 16016KT 25/19 A2997 RMK A01 T02460189  RH  071%=      5-min Rain = 0
KNH1 262106Z 15014KT 25/19 A2997 RMK A01 T02450189  RH  071%=      5-min Rain = 0
KNH1 262107Z 16016G22KT 25/19 A2997 RMK A01 T02450189  RH  071%=      5-min Rain = 0
KNH1 262108Z 16014G19KT 25/19 A2997 RMK A01 T02450189  RH  071%=      5-min Rain = 0
KNH1 262109Z 15011KT 25/19 A2997 RMK A01 T02450190  RH  071%=      5-min Rain = 0
KNH1 262110Z 15011KT 25/19 A2997 RMK A01 T02450190  RH  071%=      5-min Rain = 0
KNH1 262111Z 15012G18KT 25/19 A2997 RMK A01 T02450190  RH  071%=      5-min Rain = 0
KNH1 262112Z 16012KT 25/19 A2997 RMK A01 T02450190  RH  071%=      5-min Rain = 0
KNH1 262113Z 15013KT 25/19 A2996 RMK A01 T02450190  RH  071%=      5-min Rain = 0
KNH1 262114Z 14012G20KT 25/19 A2996 RMK A01 T02450190  RH  072%=      5-min Rain = 0
KNH1 262115Z 14015KT 25/19 A2996 RMK A01 T02450190  RH  072%=      5-min Rain = 0
KNH1 262116Z 14015G22KT 25/19 A2996 RMK A01 T02450190  RH  072%=      5-min Rain = 0
KNH1 262117Z 15013G18KT 25/19 A2996 RMK A01 T02450190  RH  071%=      5-min Rain = 0
KNH1 262118Z 15012G17KT 25/19 A2996 RMK A01 T02450190  RH  071%=      5-min Rain = 0
KNH1 262119Z 14013G18KT 25/19 A2995 RMK A01 T02450189  RH  071%=      5-min Rain = 0
KNH1 262120Z 15013G20KT 25/19 A2995 RMK A01 T02450189  RH  071%=      5-min Rain = 0
KNH1 262121Z 15012KT 25/19 A2995 RMK A01 T02450189  RH  071%=      5-min Rain = 0
KNH1 262122Z 15013G21KT 25/19 A2996 RMK A01 T02450189  RH  071%=      5-min Rain = 0
KNH1 262123Z 15011G16KT 25/19 A2996 RMK A01 T02450190  RH  071%=      5-min Rain = 0
KNH1 262124Z 15014KT 25/19 A2996 RMK A01 T02450190  RH  071%=      5-min Rain = 0
KNH1 262125Z 15015KT 25/19 A2996 RMK A01 T02450190  RH  071%=      5-min Rain = 0
KNH1 262126Z 15014G19KT 25/19 A2996 RMK A01 T02450190  RH  071%=      5-min Rain = 0
KNH1 262127Z 16013G18KT 25/19 A2996 RMK A01 T02450190  RH  071%=      5-min Rain = 0
KNH1 262128Z 15014KT 25/19 A2995 RMK A01 T02450190  RH  071%=      5-min Rain = 0
KNH1 262129Z 15016KT 25/19 A2995 RMK A01 T02450189  RH  071%=      5-min Rain = 0
KNH1 262130Z 15012KT 25/19 A2995 RMK A01 T02450188  RH  070%=      5-min Rain = 0
KNH1 262131Z 15012G17KT 25/19 A2995 RMK A01 T02460188  RH  070%=      5-min Rain = 0
KNH1 262132Z 15012G18KT 25/19 A2995 RMK A01 T02460188  RH  070%=      5-min Rain = 0
KNH1 262133Z 16013KT 25/19 A2996 RMK A01 T02460188  RH  070%=      5-min Rain = 0
KNH1 262134Z 16014G21KT 25/19 A2996 RMK A01 T02450188  RH  070%=      5-min Rain = 0
KNH1 262135Z 15013G19KT 25/19 A2996 RMK A01 T02450188  RH  071%=      5-min Rain = 0
KNH1 262136Z 16013G18KT 25/19 A2996 RMK A01 T02460190  RH  071%=      5-min Rain = 0
KNH1 262137Z 15016KT 25/19 A2996 RMK A01 T02460190  RH  071%=      5-min Rain = 0
KNH1 262138Z 15013G19KT 25/19 A2996 RMK A01 T02460191  RH  071%=      5-min Rain = 0
KNH1 262139Z 16011KT 25/19 A2996 RMK A01 T02460191  RH  072%=      5-min Rain = 0
KNH1 262140Z 15013G20KT 25/19 A2996 RMK A01 T02460191  RH  072%=      5-min Rain = 0
KNH1 262141Z 16015G20KT 25/19 A2996 RMK A01 T02460191  RH  071%=      5-min Rain = 0
KNH1 262142Z 16015KT 25/19 A2996 RMK A01 T02450190  RH  071%=      5-min Rain = 0
KNH1 262143Z 15012G18KT 25/19 A2996 RMK A01 T02450191  RH  072%=      5-min Rain = 0
KNH1 262144Z 16012G18KT 25/19 A2996 RMK A01 T02450191  RH  072%=      5-min Rain = 0
KNH1 262145Z 16017KT 25/19 A2996 RMK A01 T02450191  RH  072%=      5-min Rain = 0
KNH1 262146Z 16017KT 25/19 A2996 RMK A01 T02450191  RH  072%=      5-min Rain = 0
KNH1 262147Z 17014G19KT 25/19 A2996 RMK A01 T02450192  RH  072%=      5-min Rain = 0
KNH1 262148Z 17013KT 25/19 A2996 RMK A01 T02450192  RH  072%=      5-min Rain = 0
KNH1 262149Z 17014KT 25/19 A2996 RMK A01 T02450192  RH  072%=      5-min Rain = 0
KNH1 262150Z 17016G21KT 25/19 A2996 RMK A01 T02450192  RH  072%=      5-min Rain = 0
KNH1 262151Z 17015KT 25/19 A2996 RMK A01 T02450192  RH  072%=      5-min Rain = 0
KNH1 262152Z 17017KT 25/19 A2996 RMK A01 T02450192  RH  072%=      5-min Rain = 0
KNH1 262153Z 16017KT 25/19 A2996 RMK A01 T02450192  RH  072%=      5-min Rain = 0
KNH1 262154Z 15015G20KT 24/19 A2996 RMK A01 T02440192  RH  073%=      5-min Rain = 0
KNH1 262155Z 16018KT 24/19 A2995 RMK A01 T02440192  RH  073%=      5-min Rain = 0
KNH1 262156Z 16015G20KT 24/19 A2995 RMK A01 T02440192  RH  072%=      5-min Rain = 0
KNH1 262157Z 16015G20KT 25/19 A2995 RMK A01 T02450193  RH  073%=      5-min Rain = 0
KNH1 262158Z 16016G22KT 25/19 A2995 RMK A01 T02450192  RH  072%=      5-min Rain = 0
KNH1 262159Z 16013KT 25/19 A2995 RMK A01 T02450192  RH  072%=      5-min Rain = 0
KNH1 262200Z 16013KT 25/19 A2995 RMK A01 T02460193  RH  072%=      5-min Rain = 0
KNH1 262201Z 17016G22KT 25/19 A2995 RMK A01 T02460192  RH  072%=      5-min Rain = 0
KNH1 262202Z 17012KT 25/19 A2995 RMK A01 T02460193  RH  072%=      5-min Rain = 0
KNH1 262203Z 16014KT 25/19 A2995 RMK A01 T02470193  RH  072%=      5-min Rain = 0
KNH1 262204Z 17015KT 25/19 A2995 RMK A01 T02470193  RH  072%=      5-min Rain = 0
KNH1 262205Z 18015KT 25/19 A2995 RMK A01 T02470193  RH  072%=      5-min Rain = 0
KNH1 262206Z 17015G20KT 25/19 A2995 RMK A01 T02470193  RH  072%=      5-min Rain = 0
KNH1 262207Z 17017KT 25/19 A2995 RMK A01 T02470192  RH  072%=      5-min Rain = 0
KNH1 262208Z 17015KT 25/19 A2995 RMK A01 T02470192  RH  072%=      5-min Rain = 0
KNH1 262209Z 18019KT 25/19 A2995 RMK A01 T02470192  RH  071%=      5-min Rain = 0
KNH1 262210Z 17015KT 25/19 A2996 RMK A01 T02460192  RH  072%=      5-min Rain = 0
KNH1 262211Z 16017KT 25/19 A2996 RMK A01 T02460192  RH  072%=      5-min Rain = 0
KNH1 262212Z 17016G21KT 25/19 A2996 RMK A01 T02460192  RH  072%=      5-min Rain = 0
KNH1 262213Z 17014KT 25/19 A2996 RMK A01 T02450192  RH  072%=      5-min Rain = 0
KNH1 262214Z 17014G22KT 25/19 A2996 RMK A01 T02450192  RH  072%=      5-min Rain = 0
KNH1 262215Z 17015G23KT 25/19 A2996 RMK A01 T02450192  RH  072%=      5-min Rain = 0
KNH1 262216Z 16018G24KT 25/19 A2995 RMK A01 T02450192  RH  072%=      5-min Rain = 0
KNH1 262217Z 16017G22KT 24/19 A2995 RMK A01 T02440191  RH  072%=      5-min Rain = 0
KNH1 262218Z 17016G21KT 24/19 A2995 RMK A01 T02430191  RH  073%=      5-min Rain = 0
KNH1 262219Z 17019KT 24/19 A2995 RMK A01 T02430191  RH  073%=      5-min Rain = 0
KNH1 262220Z 16015G21KT 24/19 A2995 RMK A01 T02430191  RH  073%=      5-min Rain = 0
KNH1 262221Z 15013G18KT 24/19 A2995 RMK A01 T02420191  RH  073%=      5-min Rain = 0
KNH1 262222Z 15016G22KT 24/19 A2994 RMK A01 T02430191  RH  073%=      5-min Rain = 0
KNH1 262223Z 16016G21KT 24/19 A2994 RMK A01 T02420190  RH  073%=      5-min Rain = 0
KNH1 262224Z 15016G22KT 24/19 A2994 RMK A01 T02420189  RH  072%=      5-min Rain = 0
KNH1 262225Z 16016G21KT 24/19 A2994 RMK A01 T02410190  RH  073%=      5-min Rain = 0
KNH1 262226Z 16014G20KT 24/19 A2994 RMK A01 T02410190  RH  073%=      5-min Rain = 0
KNH1 262227Z 15013G18KT 24/19 A2994 RMK A01 T02410190  RH  073%=      5-min Rain = 0
KNH1 262228Z 15014KT 24/19 A2993 RMK A01 T02410190  RH  073%=      5-min Rain = 0
KNH1 262229Z 16011KT 24/19 A2993 RMK A01 T02410190  RH  073%=      5-min Rain = 0
KNH1 262230Z 15012KT 24/19 A2993 RMK A01 T02420191  RH  073%=      5-min Rain = 0
KNH1 262231Z 16015G20KT 24/19 A2993 RMK A01 T02420190  RH  073%=      5-min Rain = 0
KNH1 262232Z 15012KT 24/19 A2993 RMK A01 T02420190  RH  073%=      5-min Rain = 0
KNH1 262233Z 15011G17KT 24/19 A2992 RMK A01 T02420190  RH  073%=      5-min Rain = 0
KNH1 262234Z 14013G20KT 24/19 A2992 RMK A01 T02420191  RH  073%=      5-min Rain = 0
KNH1 262235Z 14012G18KT 24/19 A2991 RMK A01 T02430191  RH  073%=      5-min Rain = 0
KNH1 262236Z 14016G21KT 24/19 A299 RMK A01 T02440190  RH  072%=      5-min Rain = 0
KNH1 262237Z 15015G22KT 24/19 A2989 RMK A01 T02440190  RH  072%=      5-min Rain = 0
KNH1 262238Z 13015KT 25/19 A2989 RMK A01 T02450190  RH  071%=      5-min Rain = 0
KNH1 262239Z 14013G18KT 25/19 A2988 RMK A01 T02470192  RH  072%=      5-min Rain = 0
KNH1 262240Z 14017G22KT 25/19 A2989 RMK A01 T02480192  RH  071%=      5-min Rain = 0
KNH1 262241Z 13014G24KT 25/19 A2988 RMK A01 T02490191  RH  070%=      5-min Rain = 0
KNH1 262242Z 13016G21KT 25/19 A2988 RMK A01 T02490192  RH  071%=      5-min Rain = 0
KNH1 262243Z 14015G24KT 25/19 A2988 RMK A01 T02490191  RH  070%=      5-min Rain = 0
KNH1 262244Z 14018G24KT 25/19 A2989 RMK A01 T02490190  RH  070%=      5-min Rain = 0
KNH1 262245Z 14020G28KT 25/19 A2988 RMK A01 T02490190  RH  070%=      5-min Rain = 0
KNH1 262246Z 14018G23KT 25/19 A2988 RMK A01 T02490190  RH  070%=      5-min Rain = 0
KNH1 262247Z 14015G21KT 25/19 A2988 RMK A01 T02490191  RH  070%=      5-min Rain = 0
KNH1 262248Z 15020G25KT 25/19 A2989 RMK A01 T02490190  RH  070%=      5-min Rain = 0
KNH1 262249Z 15017KT 25/19 A2989 RMK A01 T02490189  RH  069%=      5-min Rain = 0
KNH1 262250Z 15015G21KT 25/19 A2989 RMK A01 T02490189  RH  069%=      5-min Rain = 0
KNH1 262251Z 14012G21KT 25/19 A2989 RMK A01 T02490190  RH  070%=      5-min Rain = 0
KNH1 262252Z 15013G22KT 25/19 A2989 RMK A01 T02500191  RH  069%=      5-min Rain = 0
KNH1 262253Z 15015G23KT 25/19 A2989 RMK A01 T02510190  RH  069%=      5-min Rain = 0
KNH1 262254Z 15015G24KT 25/19 A299 RMK A01 T02510189  RH  068%=      5-min Rain = 0
KNH1 262255Z 16016G24KT 25/19 A299 RMK A01 T02500188  RH  069%=      5-min Rain = 0
KNH1 262256Z 15012G20KT 25/19 A299 RMK A01 T02490189  RH  069%=      5-min Rain = 0
KNH1 262257Z 15016G22KT 25/19 A299 RMK A01 T02490189  RH  069%=      5-min Rain = 0
KNH1 262258Z 15018G23KT 25/19 A299 RMK A01 T02500189  RH  069%=      5-min Rain = 0
KNH1 262259Z 15016G22KT 25/19 A299 RMK A01 T02500189  RH  069%=      5-min Rain = 0
KNH1 262300Z 15013G19KT 25/19 A299 RMK A01 T02500190  RH  069%=      5-min Rain = 0
KNH1 262301Z 14016G22KT 25/19 A299 RMK A01 T02500189  RH  069%=      5-min Rain = 0
KNH1 262302Z 15014KT 25/19 A299 RMK A01 T02500189  RH  069%=      5-min Rain = 0
KNH1 262303Z 15012G19KT 25/19 A299 RMK A01 T02500190  RH  069%=      5-min Rain = 0
KNH1 262304Z 15014G19KT 25/19 A299 RMK A01 T02510190  RH  069%=      5-min Rain = 0
KNH1 262305Z 15013G21KT 25/19 A2991 RMK A01 T02510190  RH  069%=      5-min Rain = 0
KNH1 262306Z 15017G22KT 25/19 A2991 RMK A01 T02510189  RH  068%=      5-min Rain = 0
KNH1 262307Z 16018G23KT 25/19 A2991 RMK A01 T02510189  RH  068%=      5-min Rain = 0
KNH1 262308Z 16018G23KT 25/19 A2991 RMK A01 T02510189  RH  069%=      5-min Rain = 0
KNH1 262309Z 15016KT 25/19 A2991 RMK A01 T02500190  RH  069%=      5-min Rain = 0
KNH1 262310Z 15015G21KT 25/19 A2992 RMK A01 T02500190  RH  069%=      5-min Rain = 0
KNH1 262311Z 16014G20KT 25/19 A2992 RMK A01 T02510190  RH  069%=      5-min Rain = 0
KNH1 262312Z 16012G17KT 25/19 A2991 RMK A01 T02510191  RH  069%=      5-min Rain = 0
KNH1 262313Z 15015KT 25/19 A2991 RMK A01 T02510190  RH  069%=      5-min Rain = 0
KNH1 262314Z 15012KT 25/19 A2991 RMK A01 T02510191  RH  069%=      5-min Rain = 0
KNH1 262315Z 15012KT 25/19 A2991 RMK A01 T02510191  RH  069%=      5-min Rain = 0
KNH1 262316Z 15015G20KT 25/19 A2991 RMK A01 T02510190  RH  069%=      5-min Rain = 0
KNH1 262317Z 15015KT 25/19 A2991 RMK A01 T02510190  RH  069%=      5-min Rain = 0
KNH1 262318Z 15014G20KT 25/19 A2991 RMK A01 T02510190  RH  069%=      5-min Rain = 0
KNH1 262319Z 15012G19KT 25/19 A2991 RMK A01 T02500190  RH  069%=      5-min Rain = 0
KNH1 262320Z 14014G21KT 25/19 A2991 RMK A01 T02500190  RH  069%=      5-min Rain = 0
KNH1 262321Z 16014G21KT 25/19 A2991 RMK A01 T02500191  RH  069%=      5-min Rain = 0
KNH1 262322Z 15012KT 25/19 A2991 RMK A01 T02510191  RH  069%=      5-min Rain = 0
KNH1 262323Z 15011G17KT 25/19 A2991 RMK A01 T02510191  RH  069%=      5-min Rain = 0
KNH1 262324Z 16015KT 25/19 A2991 RMK A01 T02520191  RH  069%=      5-min Rain = 0
KNH1 262325Z 16014G24KT 25/19 A2991 RMK A01 T02520190  RH  069%=      5-min Rain = 0
KNH1 262326Z 16019G25KT 25/19 A2992 RMK A01 T02520190  RH  068%=      5-min Rain = 0
KNH1 262327Z 16016G24KT 25/19 A2992 RMK A01 T02530190  RH  068%=      5-min Rain = 0
KNH1 262328Z 15014G19KT 25/19 A2992 RMK A01 T02530191  RH  068%=      5-min Rain = 0
KNH1 262329Z 16015G21KT 25/19 A2992 RMK A01 T02520191  RH  069%=      5-min Rain = 0
KNH1 262330Z 14011G16KT 25/19 A2992 RMK A01 T02530191  RH  069%=      5-min Rain = 0
KNH1 262331Z 15012G18KT 25/19 A2992 RMK A01 T02520191  RH  069%=      5-min Rain = 0
KNH1 262332Z 16013KT 25/19 A2992 RMK A01 T02520190  RH  068%=      5-min Rain = 0
KNH1 262333Z 16010KT 25/19 A2992 RMK A01 T02530191  RH  069%=      5-min Rain = 0
KNH1 262334Z 16010G15KT 25/19 A2992 RMK A01 T02520191  RH  069%=      5-min Rain = 0
KNH1 262335Z 16011KT 25/19 A2992 RMK A01 T02530192  RH  069%=      5-min Rain = 0
KNH1 262336Z 16014KT 25/19 A2992 RMK A01 T02530192  RH  069%=      5-min Rain = 0
KNH1 262337Z 15011KT 25/19 A2992 RMK A01 T02530192  RH  069%=      5-min Rain = 0
KNH1 262338Z 15011KT 25/19 A2992 RMK A01 T02530192  RH  069%=      5-min Rain = 0
KNH1 262339Z 16007KT 25/19 A2992 RMK A01 T02540193  RH  069%=      5-min Rain = 0
KNH1 262340Z 15013KT 25/19 A2992 RMK A01 T02540192  RH  068%=      5-min Rain = 0
KNH1 262341Z 15012G18KT 25/19 A2992 RMK A01 T02540191  RH  068%=      5-min Rain = 0
KNH1 262342Z 15013KT 25/19 A2992 RMK A01 T02540191  RH  068%=      5-min Rain = 0
KNH1 262343Z 15011G16KT 25/19 A2992 RMK A01 T02530192  RH  069%=      5-min Rain = 0
KNH1 262344Z 16012G17KT 25/19 A2991 RMK A01 T02530192  RH  069%=      5-min Rain = 0
KNH1 262345Z 16012KT 25/19 A2991 RMK A01 T02530191  RH  069%=      5-min Rain = 0
KNH1 262346Z 16012KT 25/19 A2992 RMK A01 T02530192  RH  069%=      5-min Rain = 0
KNH1 262347Z 16015KT 25/19 A2992 RMK A01 T02530192  RH  069%=      5-min Rain = 0
KNH1 262348Z 17013G18KT 25/19 A2992 RMK A01 T02530192  RH  069%=      5-min Rain = 0
KNH1 262349Z 16013G20KT 25/19 A2992 RMK A01 T02530192  RH  069%=      5-min Rain = 0
KNH1 262350Z 16011KT 25/19 A2992 RMK A01 T02530192  RH  069%=      5-min Rain = 0
KNH1 262351Z 16011KT 25/19 A2992 RMK A01 T02530192  RH  069%=      5-min Rain = 0
KNH1 262352Z 17012G18KT 25/19 A2992 RMK A01 T02530193  RH  069%=      5-min Rain = 0
KNH1 262353Z 16015KT 25/19 A2992 RMK A01 T02530193  RH  069%=      5-min Rain = 0
KNH1 262354Z 16015KT 25/19 A2992 RMK A01 T02530192  RH  069%=      5-min Rain = 0
KNH1 262355Z 16016KT 25/19 A2992 RMK A01 T02520191  RH  069%=      5-min Rain = 0
KNH1 262356Z 16013KT 25/19 A2992 RMK A01 T02520190  RH  069%=      5-min Rain = 0
KNH1 262357Z 16016G25KT 25/19 A2992 RMK A01 T02520190  RH  069%=      5-min Rain = 0
KNH1 262358Z 16019KT 25/19 A2992 RMK A01 T02520189  RH  068%=      5-min Rain = 0
KNH1 262359Z 16015G20KT 25/19 A2992 RMK A01 T02510189  RH  069%=      5-min Rain = 0
KNH1 270000Z 16017KT 25/19 A2992 RMK A01 T02510190  RH  069%=      5-min Rain = 0
KNH1 270001Z 17015KT 25/19 A2992 RMK A01 T02510190  RH  069%=      5-min Rain = 0
KNH1 270002Z 17016KT 25/19 A2992 RMK A01 T02520190  RH  069%=      5-min Rain = 0
KNH1 270003Z 17017G22KT 25/19 A2992 RMK A01 T02530189  RH  068%=      5-min Rain = 0
KNH1 270004Z 16016G22KT 25/19 A2992 RMK A01 T02530190  RH  068%=      5-min Rain = 0
KNH1 270005Z 17016G24KT 25/19 A2992 RMK A01 T02530189  RH  067%=      5-min Rain = 0
KNH1 270006Z 17018KT 25/19 A2992 RMK A01 T02530188  RH  067%=      5-min Rain = 0
KNH1 270007Z 17019G25KT 25/19 A2991 RMK A01 T02530188  RH  067%=      5-min Rain = 0
KNH1 270008Z 16022G27KT 25/19 A2991 RMK A01 T02530187  RH  067%=      5-min Rain = 0
KNH1 270009Z 16018G24KT 25/19 A2991 RMK A01 T02530188  RH  067%=      5-min Rain = 0
KNH1 270010Z 16018KT 25/19 A2991 RMK A01 T02530188  RH  067%=      5-min Rain = 0
KNH1 270011Z 17015KT 25/19 A2991 RMK A01 T02530188  RH  067%=      5-min Rain = 0
KNH1 270012Z 16015G21KT 25/19 A2991 RMK A01 T02540188  RH  067%=      5-min Rain = 0
KNH1 270013Z 16015G20KT 25/19 A2991 RMK A01 T02540188  RH  067%=      5-min Rain = 0
KNH1 270014Z 17016G21KT 25/19 A2991 RMK A01 T02540188  RH  067%=      5-min Rain = 0
KNH1 270015Z 17016G22KT 25/19 A2991 RMK A01 T02540188  RH  067%=      5-min Rain = 0
KNH1 270016Z 17016G21KT 25/19 A2991 RMK A01 T02540188  RH  067%=      5-min Rain = 0
KNH1 270017Z 17014KT 25/19 A2991 RMK A01 T02530188  RH  067%=      5-min Rain = 0
KNH1 270018Z 17014KT 25/19 A2991 RMK A01 T02540188  RH  067%=      5-min Rain = 0
KNH1 270019Z 17012G17KT 25/19 A2991 RMK A01 T02540188  RH  067%=      5-min Rain = 0
KNH1 270020Z 16017G22KT 25/19 A2991 RMK A01 T02540189  RH  067%=      5-min Rain = 0
KNH1 270021Z 16020KT 25/19 A2991 RMK A01 T02540187  RH  066%=      5-min Rain = 0
KNH1 270022Z 17021KT 25/19 A2991 RMK A01 T02530187  RH  067%=      5-min Rain = 0
KNH1 270023Z 17020G25KT 25/19 A2991 RMK A01 T02530187  RH  067%=      5-min Rain = 0
KNH1 270024Z 17017G23KT 25/19 A2991 RMK A01 T02520187  RH  067%=      5-min Rain = 0
KNH1 270025Z 17014G19KT 25/19 A2991 RMK A01 T02520186  RH  067%=      5-min Rain = 0
KNH1 270026Z 17015KT 25/19 A2991 RMK A01 T02530187  RH  067%=      5-min Rain = 0
KNH1 270027Z 17017KT 25/19 A2991 RMK A01 T02530187  RH  067%=      5-min Rain = 0
KNH1 270028Z 17015G21KT 25/19 A299 RMK A01 T02530187  RH  067%=      5-min Rain = 0
KNH1 270029Z 17015KT 25/19 A299 RMK A01 T02530188  RH  067%=      5-min Rain = 0
KNH1 270030Z 16015G21KT 25/19 A299 RMK A01 T02530188  RH  067%=      5-min Rain = 0
KNH1 270031Z 16019KT 25/19 A299 RMK A01 T02520187  RH  067%=      5-min Rain = 0
KNH1 270032Z 16017G26KT 25/19 A299 RMK A01 T02520186  RH  067%=      5-min Rain = 0
KNH1 270033Z 16021G26KT 25/19 A299 RMK A01 T02520186  RH  067%=      5-min Rain = 0
KNH1 270034Z 16018G23KT 25/19 A299 RMK A01 T02520186  RH  067%=      5-min Rain = 0
KNH1 270035Z 16019KT 25/19 A299 RMK A01 T02520186  RH  067%=      5-min Rain = 0
KNH1 270036Z 16019KT 25/19 A299 RMK A01 T02520186  RH  067%=      5-min Rain = 0
KNH1 270037Z 16019KT 25/19 A299 RMK A01 T02520186  RH  067%=      5-min Rain = 0
KNH1 270038Z 16017G22KT 25/19 A299 RMK A01 T02510186  RH  067%=      5-min Rain = 0
KNH1 270039Z 17018G23KT 25/19 A299 RMK A01 T02510186  RH  067%=      5-min Rain = 0
KNH1 270040Z 16015KT 25/19 A299 RMK A01 T02510187  RH  068%=      5-min Rain = 0
KNH1 270041Z 16020G25KT 25/19 A2989 RMK A01 T02500187  RH  068%=      5-min Rain = 0
KNH1 270042Z 16020G25KT 25/19 A2989 RMK A01 T02500186  RH  068%=      5-min Rain = 0
KNH1 270043Z 16017KT 25/19 A2989 RMK A01 T02490186  RH  068%=      5-min Rain = 0
KNH1 270044Z 16017G22KT 25/19 A2989 RMK A01 T02490187  RH  068%=      5-min Rain = 0
KNH1 270045Z 16018G23KT 25/19 A2989 RMK A01 T02490187  RH  068%=      5-min Rain = 0
KNH1 270046Z 16019KT 25/19 A2989 RMK A01 T02490187  RH  068%=      5-min Rain = 0
KNH1 270047Z 17019KT 25/19 A2989 RMK A01 T02490186  RH  068%=      5-min Rain = 0
KNH1 270048Z 16015G21KT 25/19 A2989 RMK A01 T02490187  RH  068%=      5-min Rain = 0
KNH1 270049Z 17018G24KT 25/19 A2989 RMK A01 T02490186  RH  068%=      5-min Rain = 0
KNH1 270050Z 16017G23KT 25/19 A2989 RMK A01 T02490186  RH  068%=      5-min Rain = 0
KNH1 270051Z 17021KT 25/19 A2989 RMK A01 T02490186  RH  068%=      5-min Rain = 0
KNH1 270052Z 16017G22KT 25/19 A2989 RMK A01 T02490186  RH  068%=      5-min Rain = 0
KNH1 270053Z 16019KT 25/19 A2989 RMK A01 T02480187  RH  068%=      5-min Rain = 0
KNH1 270054Z 16020KT 25/19 A2989 RMK A01 T02480186  RH  069%=      5-min Rain = 0
KNH1 270055Z 16019G25KT 25/19 A2989 RMK A01 T02470186  RH  069%=      5-min Rain = 0
KNH1 270056Z 16015G22KT 25/19 A2989 RMK A01 T02470186  RH  069%=      5-min Rain = 0
KNH1 270057Z 16018G24KT 25/19 A2988 RMK A01 T02460185  RH  069%=      5-min Rain = 0
KNH1 270058Z 16018KT 25/19 A2988 RMK A01 T02460185  RH  069%=      5-min Rain = 0
KNH1 270059Z 16019KT 25/18 A2988 RMK A01 T02460184  RH  069%=      5-min Rain = 0
KNH1 270100Z 16017G24KT 25/19 A2988 RMK A01 T02450185  RH  069%=      5-min Rain = 0
KNH1 270101Z 16016G21KT 25/19 A2988 RMK A01 T02450186  RH  069%=      5-min Rain = 0
KNH1 270102Z 16017KT 25/19 A2988 RMK A01 T02450186  RH  069%=      5-min Rain = 0
KNH1 270103Z 16019KT 25/19 A2988 RMK A01 T02450186  RH  069%=      5-min Rain = 0
KNH1 270104Z 16018KT 25/19 A2988 RMK A01 T02450185  RH  069%=      5-min Rain = 0
KNH1 270105Z 16016KT 25/19 A2988 RMK A01 T02450185  RH  069%=      5-min Rain = 0
KNH1 270106Z 17017KT 24/19 A2988 RMK A01 T02440185  RH  070%=      5-min Rain = 0
KNH1 270107Z 16014G22KT 24/19 A2988 RMK A01 T02440185  RH  070%=      5-min Rain = 0
KNH1 270108Z 15018KT 24/19 A2988 RMK A01 T02440185  RH  069%=      5-min Rain = 0
KNH1 270109Z 15015G20KT 24/19 A2988 RMK A01 T02440185  RH  069%=      5-min Rain = 0
KNH1 270110Z 16017G24KT 24/19 A2988 RMK A01 T02440185  RH  070%=      5-min Rain = 0
KNH1 270111Z 16018G25KT 24/18 A2988 RMK A01 T02440184  RH  069%=      5-min Rain = 0
KNH1 270112Z 16017KT 24/18 A2988 RMK A01 T02440184  RH  069%=      5-min Rain = 0
KNH1 270113Z 16018G23KT 24/18 A2988 RMK A01 T02440184  RH  069%=      5-min Rain = 0
KNH1 270114Z 16017KT 24/18 A2988 RMK A01 T02430184  RH  069%=      5-min Rain = 0
KNH1 270115Z 16013KT 24/18 A2987 RMK A01 T02430184  RH  070%=      5-min Rain = 0
KNH1 270116Z 16018KT 24/18 A2987 RMK A01 T02420184  RH  070%=      5-min Rain = 0
KNH1 270117Z 16020KT 24/18 A2987 RMK A01 T02420183  RH  070%=      5-min Rain = 0
KNH1 270118Z 16017G25KT 24/18 A2987 RMK A01 T02420183  RH  070%=      5-min Rain = 0
KNH1 270119Z 16017G23KT 24/18 A2988 RMK A01 T02420184  RH  070%=      5-min Rain = 0
KNH1 270120Z 16016G21KT 24/18 A2988 RMK A01 T02420183  RH  070%=      5-min Rain = 0
KNH1 270121Z 16017KT 24/18 A2988 RMK A01 T02410183  RH  070%=      5-min Rain = 0
KNH1 270122Z 16017KT 24/18 A2988 RMK A01 T02410183  RH  070%=      5-min Rain = 0
KNH1 270123Z 16015G22KT 24/18 A2988 RMK A01 T02410184  RH  070%=      5-min Rain = 0
KNH1 270124Z 15016G24KT 24/18 A2988 RMK A01 T02400184  RH  071%=      5-min Rain = 0
KNH1 270125Z 15016G22KT 24/18 A2988 RMK A01 T02400183  RH  071%=      5-min Rain = 0
KNH1 270126Z 16018G23KT 24/18 A2988 RMK A01 T02400184  RH  071%=      5-min Rain = 0
KNH1 270127Z 16018KT 24/18 A2988 RMK A01 T02400184  RH  071%=      5-min Rain = 0
KNH1 270128Z 16019KT 24/18 A2988 RMK A01 T02400184  RH  071%=      5-min Rain = 0
KNH1 270129Z 16013G18KT 24/18 A2988 RMK A01 T02400184  RH  071%=      5-min Rain = 0
KNH1 270130Z 16015G20KT 24/18 A2988 RMK A01 T02390183  RH  071%=      5-min Rain = 0
KNH1 270131Z 15014G19KT 24/18 A2988 RMK A01 T02380183  RH  071%=      5-min Rain = 0
KNH1 270132Z 16017KT 24/18 A2988 RMK A01 T02380183  RH  071%=      5-min Rain = 0
KNH1 270133Z 16016KT 24/18 A2988 RMK A01 T02380183  RH  071%=      5-min Rain = 0
KNH1 270134Z 16015G20KT 24/18 A2988 RMK A01 T02380183  RH  071%=      5-min Rain = 0
KNH1 270135Z 16016G25KT 24/18 A2988 RMK A01 T02380183  RH  071%=      5-min Rain = 0
KNH1 270136Z 16016KT 24/18 A2988 RMK A01 T02380183  RH  071%=      5-min Rain = 0
KNH1 270137Z 16015KT 24/18 A2988 RMK A01 T02380183  RH  071%=      5-min Rain = 0
KNH1 270138Z 16016KT 24/18 A2988 RMK A01 T02380184  RH  072%=      5-min Rain = 0
KNH1 270139Z 16016G21KT 24/18 A2988 RMK A01 T02370183  RH  072%=      5-min Rain = 0
KNH1 270140Z 16018G23KT 24/18 A2988 RMK A01 T02370183  RH  072%=      5-min Rain = 0
KNH1 270141Z 16016G21KT 24/18 A2988 RMK A01 T02370183  RH  072%=      5-min Rain = 0
KNH1 270142Z 16018KT 24/18 A2988 RMK A01 T02370183  RH  072%=      5-min Rain = 0
KNH1 270143Z 16014G19KT 24/18 A2988 RMK A01 T02370183  RH  072%=      5-min Rain = 0
KNH1 270144Z 16014G19KT 24/18 A2988 RMK A01 T02360183  RH  072%=      5-min Rain = 0
KNH1 270145Z 16014G20KT 24/18 A2988 RMK A01 T02360183  RH  072%=      5-min Rain = 0
KNH1 270146Z 16017KT 24/18 A2988 RMK A01 T02360184  RH  073%=      5-min Rain = 0
KNH1 270147Z 16016G21KT 24/18 A2988 RMK A01 T02350183  RH  072%=      5-min Rain = 0
KNH1 270148Z 16014G20KT 24/18 A2988 RMK A01 T02360183  RH  072%=      5-min Rain = 0
KNH1 270149Z 16015G22KT 24/18 A2988 RMK A01 T02350183  RH  072%=      5-min Rain = 0
KNH1 270150Z 16016KT 24/18 A2988 RMK A01 T02360184  RH  073%=      5-min Rain = 0
KNH1 270151Z 16016G22KT 24/18 A2988 RMK A01 T02350183  RH  073%=      5-min Rain = 0
KNH1 270152Z 16014KT 24/18 A2988 RMK A01 T02360183  RH  073%=      5-min Rain = 0
KNH1 270153Z 16015G21KT 24/18 A2989 RMK A01 T02350183  RH  073%=      5-min Rain = 0
KNH1 270154Z 16017G22KT 24/18 A2989 RMK A01 T02350183  RH  073%=      5-min Rain = 0
KNH1 270155Z 16017KT 24/18 A2989 RMK A01 T02350183  RH  073%=      5-min Rain = 0
KNH1 270156Z 16013KT 24/18 A2989 RMK A01 T02350183  RH  073%=      5-min Rain = 0
KNH1 270157Z 16016G21KT 24/18 A2989 RMK A01 T02350183  RH  073%=      5-min Rain = 0
KNH1 270158Z 16015KT 23/18 A2989 RMK A01 T02340183  RH  073%=      5-min Rain = 0
KNH1 270159Z 16014G19KT 24/18 A2989 RMK A01 T02350183  RH  073%=      5-min Rain = 0
KNH1 270200Z 16012KT 23/18 A2989 RMK A01 T02340183  RH  073%=      5-min Rain = 0
KNH1 270201Z 16013G18KT 23/18 A2989 RMK A01 T02340183  RH  073%=      5-min Rain = 0
KNH1 270202Z 16016G21KT 23/18 A2989 RMK A01 T02330183  RH  073%=      5-min Rain = 0
KNH1 270203Z 16015KT 23/18 A2989 RMK A01 T02330183  RH  073%=      5-min Rain = 0
KNH1 270204Z 16012KT 23/18 A2989 RMK A01 T02330183  RH  073%=      5-min Rain = 0
KNH1 270205Z 16014KT 23/18 A2989 RMK A01 T02330183  RH  073%=      5-min Rain = 0
KNH1 270206Z 16014KT 23/18 A2989 RMK A01 T02320183  RH  074%=      5-min Rain = 0
KNH1 270207Z 16014KT 23/18 A2989 RMK A01 T02330183  RH  074%=      5-min Rain = 0
KNH1 270208Z 16013KT 23/18 A2989 RMK A01 T02330183  RH  074%=      5-min Rain = 0
KNH1 270209Z 16011KT 23/18 A2989 RMK A01 T02320183  RH  074%=      5-min Rain = 0
KNH1 270210Z 17014KT 23/18 A2989 RMK A01 T02320183  RH  074%=      5-min Rain = 0
KNH1 270211Z 16013G18KT 23/18 A2989 RMK A01 T02310183  RH  074%=      5-min Rain = 0
KNH1 270212Z 16013KT 23/18 A299 RMK A01 T02320183  RH  074%=      5-min Rain = 0
KNH1 270213Z 16014KT 23/18 A299 RMK A01 T02310183  RH  074%=      5-min Rain = 0
KNH1 270214Z 16013KT 23/18 A299 RMK A01 T02320183  RH  074%=      5-min Rain = 0
KNH1 270215Z 16015G22KT 23/18 A299 RMK A01 T02320182  RH  074%=      5-min Rain = 0
KNH1 270216Z 16012KT 23/18 A299 RMK A01 T02320183  RH  074%=      5-min Rain = 0
KNH1 270217Z 16014KT 23/18 A299 RMK A01 T02330183  RH  074%=      5-min Rain = 0
KNH1 270218Z 16012G18KT 23/18 A299 RMK A01 T02320183  RH  074%=      5-min Rain = 0
KNH1 270219Z 16013KT 23/18 A299 RMK A01 T02320183  RH  074%=      5-min Rain = 0
KNH1 270220Z 16013G18KT 23/18 A299 RMK A01 T02320183  RH  074%=      5-min Rain = 0
KNH1 270221Z 16014KT 23/18 A299 RMK A01 T02320183  RH  074%=      5-min Rain = 0
KNH1 270222Z 16012KT 23/18 A299 RMK A01 T02310182  RH  074%=      5-min Rain = 0
KNH1 270223Z 16012G17KT 23/18 A299 RMK A01 T02310182  RH  074%=      5-min Rain = 0
KNH1 270224Z 16012KT 23/18 A299 RMK A01 T02310183  RH  074%=      5-min Rain = 0
KNH1 270225Z 16014G19KT 23/18 A299 RMK A01 T02300182  RH  074%=      5-min Rain = 0
KNH1 270226Z 16015G20KT 23/18 A299 RMK A01 T02310182  RH  074%=      5-min Rain = 0
KNH1 270227Z 16014G19KT 23/18 A299 RMK A01 T02310182  RH  074%=      5-min Rain = 0
KNH1 270228Z 16013KT 23/18 A299 RMK A01 T02310182  RH  074%=      5-min Rain = 0
KNH1 270229Z 16013G18KT 23/18 A299 RMK A01 T02310183  RH  074%=      5-min Rain = 0
KNH1 270230Z 16015KT 23/18 A299 RMK A01 T02300182  RH  074%=      5-min Rain = 0
KNH1 270231Z 16014KT 23/18 A299 RMK A01 T02300182  RH  074%=      5-min Rain = 0
KNH1 270232Z 16014KT 23/18 A299 RMK A01 T02300182  RH  074%=      5-min Rain = 0
KNH1 270233Z 16014KT 23/18 A299 RMK A01 T02310182  RH  074%=      5-min Rain = 0
KNH1 270234Z 16014KT 23/18 A299 RMK A01 T02310182  RH  074%=      5-min Rain = 0
KNH1 270235Z 16013KT 23/18 A299 RMK A01 T02300182  RH  074%=      5-min Rain = 0
KNH1 270236Z 16012G17KT 23/18 A299 RMK A01 T02300182  RH  074%=      5-min Rain = 0
KNH1 270237Z 16013KT 23/18 A299 RMK A01 T02300182  RH  074%=      5-min Rain = 0
KNH1 270238Z 16011KT 23/18 A299 RMK A01 T02300182  RH  074%=      5-min Rain = 0
KNH1 270239Z 16013KT 23/18 A299 RMK A01 T02300182  RH  074%=      5-min Rain = 0
KNH1 270240Z 16014KT 23/18 A299 RMK A01 T02290182  RH  074%=      5-min Rain = 0
KNH1 270241Z 16013KT 23/18 A299 RMK A01 T02290182  RH  074%=      5-min Rain = 0
KNH1 270242Z 16013KT 23/18 A299 RMK A01 T02290181  RH  074%=      5-min Rain = 0
KNH1 270243Z 16012KT 23/18 A299 RMK A01 T02290181  RH  074%=      5-min Rain = 0
KNH1 270244Z 16013KT 23/18 A299 RMK A01 T02290181  RH  074%=      5-min Rain = 0
KNH1 270245Z 16013KT 23/18 A299 RMK A01 T02290182  RH  075%=      5-min Rain = 0
KNH1 270246Z 16010KT 23/18 A299 RMK A01 T02290181  RH  075%=      5-min Rain = 0
KNH1 270247Z 16012KT 23/18 A299 RMK A01 T02280181  RH  075%=      5-min Rain = 0
KNH1 270248Z 16013KT 23/18 A2991 RMK A01 T02280181  RH  075%=      5-min Rain = 0
KNH1 270249Z 16011G16KT 23/18 A2991 RMK A01 T02280181  RH  075%=      5-min Rain = 0
KNH1 270250Z 16011KT 23/18 A2991 RMK A01 T02280181  RH  075%=      5-min Rain = 0
KNH1 270251Z 17011KT 23/18 A2991 RMK A01 T02280181  RH  075%=      5-min Rain = 0
KNH1 270252Z 16013KT 23/18 A2991 RMK A01 T02280181  RH  075%=      5-min Rain = 0
KNH1 270253Z 16013KT 23/18 A2991 RMK A01 T02280181  RH  075%=      5-min Rain = 0
KNH1 270254Z 16011KT 23/18 A2991 RMK A01 T02280180  RH  075%=      5-min Rain = 0
KNH1 270255Z 16012KT 23/18 A2991 RMK A01 T02280181  RH  075%=      5-min Rain = 0
KNH1 270256Z 16012G17KT 23/18 A2991 RMK A01 T02270180  RH  074%=      5-min Rain = 0
KNH1 270257Z 16013KT 23/18 A2991 RMK A01 T02280180  RH  075%=      5-min Rain = 0
KNH1 270258Z 16012KT 23/18 A2991 RMK A01 T02280180  RH  074%=      5-min Rain = 0
KNH1 270259Z 16013KT 23/18 A2991 RMK A01 T02280180  RH  074%=      5-min Rain = 0
KNH1 270300Z 16012KT 23/18 A2991 RMK A01 T02280180  RH  074%=      5-min Rain = 0
KNH1 270301Z 16011KT 23/18 A2991 RMK A01 T02280180  RH  075%=      5-min Rain = 0
KNH1 270302Z 16012KT 23/18 A2991 RMK A01 T02270180  RH  075%=      5-min Rain = 0
KNH1 270303Z 17013KT 23/18 A2991 RMK A01 T02270180  RH  075%=      5-min Rain = 0
KNH1 270304Z 16012KT 23/18 A2991 RMK A01 T02270180  RH  075%=      5-min Rain = 0
KNH1 270305Z 16012KT 23/18 A2991 RMK A01 T02270180  RH  075%=      5-min Rain = 0
KNH1 270306Z 16014KT 23/18 A2991 RMK A01 T02270180  RH  075%=      5-min Rain = 0
KNH1 270307Z 16014KT 23/18 A2991 RMK A01 T02270179  RH  074%=      5-min Rain = 0
KNH1 270308Z 16014KT 23/18 A2991 RMK A01 T02270179  RH  074%=      5-min Rain = 0
KNH1 270309Z 16011KT 23/18 A2991 RMK A01 T02270179  RH  074%=      5-min Rain = 0
KNH1 270310Z 16010KT 23/18 A2991 RMK A01 T02270179  RH  074%=      5-min Rain = 0
KNH1 270311Z 16011KT 23/18 A2991 RMK A01 T02270179  RH  075%=      5-min Rain = 0
KNH1 270312Z 15011KT 23/18 A2991 RMK A01 T02260179  RH  075%=      5-min Rain = 0
KNH1 270313Z 16010KT 23/18 A2991 RMK A01 T02250179  RH  075%=      5-min Rain = 0
KNH1 270314Z 15011G18KT 23/18 A2991 RMK A01 T02250179  RH  075%=      5-min Rain = 0
KNH1 270315Z 15011KT 23/18 A299 RMK A01 T02250179  RH  075%=      5-min Rain = 0
KNH1 270316Z 15011KT 23/18 A299 RMK A01 T02250179  RH  075%=      5-min Rain = 0
KNH1 270317Z 15010KT 23/18 A299 RMK A01 T02250179  RH  075%=      5-min Rain = 0
KNH1 270318Z 15009KT 23/18 A299 RMK A01 T02250179  RH  075%=      5-min Rain = 0
KNH1 270319Z 16010KT 22/18 A299 RMK A01 T02240179  RH  076%=      5-min Rain = 0
KNH1 270320Z 15010G15KT 22/18 A299 RMK A01 T02240179  RH  076%=      5-min Rain = 0
KNH1 270321Z 16012KT 22/18 A299 RMK A01 T02240179  RH  076%=      5-min Rain = 0
KNH1 270322Z 16008KT 22/18 A299 RMK A01 T02240178  RH  076%=      5-min Rain = 0
KNH1 270323Z 15011KT 22/18 A2991 RMK A01 T02240179  RH  076%=      5-min Rain = 0
KNH1 270324Z 15012KT 22/18 A2991 RMK A01 T02240179  RH  076%=      5-min Rain = 0
KNH1 270325Z 16012KT 22/18 A2991 RMK A01 T02230179  RH  076%=      5-min Rain = 0
KNH1 270326Z 16013KT 22/18 A2991 RMK A01 T02240179  RH  076%=      5-min Rain = 0
KNH1 270327Z 16012G17KT 22/18 A2991 RMK A01 T02230179  RH  076%=      5-min Rain = 0
KNH1 270328Z 16013G19KT 22/18 A2991 RMK A01 T02240179  RH  076%=      5-min Rain = 0
KNH1 270329Z 16010KT 22/18 A2991 RMK A01 T02240178  RH  076%=      5-min Rain = 0
KNH1 270330Z 16011KT 22/18 A2991 RMK A01 T02230179  RH  076%=      5-min Rain = 0
KNH1 270331Z 16011KT 22/18 A2991 RMK A01 T02230178  RH  076%=      5-min Rain = 0
KNH1 270332Z 16011KT 22/18 A2991 RMK A01 T02230178  RH  076%=      5-min Rain = 0
KNH1 270333Z 16010KT 22/18 A2991 RMK A01 T02230179  RH  076%=      5-min Rain = 0
KNH1 270334Z 16009KT 22/18 A2991 RMK A01 T02220178  RH  076%=      5-min Rain = 0
KNH1 270335Z 16011KT 22/18 A2991 RMK A01 T02220178  RH  076%=      5-min Rain = 0
KNH1 270336Z 16010KT 22/18 A2991 RMK A01 T02220178  RH  076%=      5-min Rain = 0
KNH1 270337Z 16011G17KT 22/18 A2991 RMK A01 T02210178  RH  077%=      5-min Rain = 0
KNH1 270338Z 15012G17KT 22/18 A2991 RMK A01 T02210178  RH  076%=      5-min Rain = 0
KNH1 270339Z 16011KT 22/18 A2991 RMK A01 T02210178  RH  076%=      5-min Rain = 0
KNH1 270340Z 16012G17KT 22/18 A2991 RMK A01 T02210178  RH  076%=      5-min Rain = 0
KNH1 270341Z 16012KT 22/18 A299 RMK A01 T02210178  RH  076%=      5-min Rain = 0
KNH1 270342Z 16012G18KT 22/18 A299 RMK A01 T02210178  RH  076%=      5-min Rain = 0
KNH1 270343Z 15011G16KT 22/18 A299 RMK A01 T02210178  RH  076%=      5-min Rain = 0
KNH1 270344Z 16011KT 22/18 A299 RMK A01 T02210178  RH  076%=      5-min Rain = 0
KNH1 270345Z 16011KT 22/18 A299 RMK A01 T02210178  RH  077%=      5-min Rain = 0
KNH1 270346Z 16012KT 22/18 A299 RMK A01 T02200178  RH  077%=      5-min Rain = 0
KNH1 270347Z 16012KT 22/18 A2991 RMK A01 T02210178  RH  077%=      5-min Rain = 0
KNH1 270348Z 16011KT 22/18 A2991 RMK A01 T02210178  RH  077%=      5-min Rain = 0
KNH1 270349Z 16011KT 22/18 A299 RMK A01 T02200178  RH  077%=      5-min Rain = 0
KNH1 270350Z 16011KT 22/18 A299 RMK A01 T02200178  RH  077%=      5-min Rain = 0
KNH1 270351Z 16011KT 22/18 A299 RMK A01 T02200178  RH  077%=      5-min Rain = 0
KNH1 270352Z 16011KT 22/18 A299 RMK A01 T02200178  RH  077%=      5-min Rain = 0
KNH1 270353Z 16010KT 22/18 A299 RMK A01 T02200178  RH  077%=      5-min Rain = 0
KNH1 270354Z 17010KT 22/18 A299 RMK A01 T02200178  RH  077%=      5-min Rain = 0
KNH1 270355Z 17010KT 22/18 A299 RMK A01 T02190178  RH  077%=      5-min Rain = 0
KNH1 270356Z 17009KT 22/18 A299 RMK A01 T02190178  RH  077%=      5-min Rain = 0
KNH1 270357Z 17010KT 22/18 A299 RMK A01 T02190178  RH  078%=      5-min Rain = 0
KNH1 270358Z 17009KT 22/18 A299 RMK A01 T02180178  RH  078%=      5-min Rain = 0
KNH1 270359Z 17009KT 22/18 A299 RMK A01 T02180178  RH  078%=      5-min Rain = 0
KNH1 270400Z 16009KT 22/18 A299 RMK A01 T02180178  RH  078%=      5-min Rain = 0
KNH1 270401Z 17010KT 22/18 A299 RMK A01 T02170178  RH  078%=      5-min Rain = 0
KNH1 270402Z 16010KT 22/18 A299 RMK A01 T02170178  RH  078%=      5-min Rain = 0
KNH1 270403Z 17009KT 22/18 A299 RMK A01 T02170177  RH  078%=      5-min Rain = 0
KNH1 270404Z 17011KT 22/18 A299 RMK A01 T02170178  RH  078%=      5-min Rain = 0
KNH1 270405Z 17009KT 22/18 A299 RMK A01 T02170178  RH  078%=      5-min Rain = 0
KNH1 270406Z 17009KT 22/18 A299 RMK A01 T02170178  RH  078%=      5-min Rain = 0
KNH1 270407Z 17010KT 22/18 A299 RMK A01 T02170178  RH  078%=      5-min Rain = 0
KNH1 270408Z 17010KT 22/18 A299 RMK A01 T02160177  RH  078%=      5-min Rain = 0
KNH1 270409Z 17010KT 22/18 A299 RMK A01 T02160178  RH  079%=      5-min Rain = 0
KNH1 270410Z 17010KT 22/18 A299 RMK A01 T02160177  RH  079%=      5-min Rain = 0
KNH1 270411Z 16009KT 22/18 A299 RMK A01 T02160177  RH  079%=      5-min Rain = 0
KNH1 270412Z 17009KT 22/18 A299 RMK A01 T02160177  RH  079%=      5-min Rain = 0
KNH1 270413Z 17011KT 22/18 A2991 RMK A01 T02160177  RH  078%=      5-min Rain = 0
KNH1 270414Z 17009KT 22/18 A2991 RMK A01 T02170178  RH  078%=      5-min Rain = 0
KNH1 270415Z 17010KT 22/18 A2991 RMK A01 T02160177  RH  078%=      5-min Rain = 0
KNH1 270416Z 17009KT 22/18 A2991 RMK A01 T02160177  RH  078%=      5-min Rain = 0
KNH1 270417Z 17010KT 22/18 A2991 RMK A01 T02160178  RH  078%=      5-min Rain = 0
KNH1 270418Z 17010KT 22/18 A2991 RMK A01 T02160177  RH  079%=      5-min Rain = 0
KNH1 270419Z 17009KT 22/18 A2991 RMK A01 T02160177  RH  079%=      5-min Rain = 0
KNH1 270420Z 17010KT 22/18 A2991 RMK A01 T02150177  RH  079%=      5-min Rain = 0
KNH1 270421Z 17009KT 22/18 A2991 RMK A01 T02150177  RH  079%=      5-min Rain = 0
KNH1 270422Z 16010KT 22/18 A2991 RMK A01 T02150177  RH  079%=      5-min Rain = 0
KNH1 270423Z 17010KT 22/18 A2991 RMK A01 T02150177  RH  079%=      5-min Rain = 0
KNH1 270424Z 17009KT 22/18 A2991 RMK A01 T02150177  RH  079%=      5-min Rain = 0
KNH1 270425Z 16011KT 21/18 A2991 RMK A01 T02140177  RH  079%=      5-min Rain = 0
KNH1 270426Z 17011KT 21/18 A2991 RMK A01 T02140177  RH  079%=      5-min Rain = 0
KNH1 270427Z 17010KT 21/18 A2991 RMK A01 T02140177  RH  079%=      5-min Rain = 0
KNH1 270428Z 17010KT 22/18 A299 RMK A01 T02150177  RH  079%=      5-min Rain = 0
KNH1 270429Z 17010KT 22/18 A299 RMK A01 T02150177  RH  079%=      5-min Rain = 0
KNH1 270430Z 17010KT 21/18 A299 RMK A01 T02140177  RH  079%=      5-min Rain = 0
KNH1 270431Z 17011KT 21/18 A299 RMK A01 T02140177  RH  079%=      5-min Rain = 0
KNH1 270432Z 16012KT 21/18 A299 RMK A01 T02140177  RH  080%=      5-min Rain = 0
KNH1 270433Z 17011KT 21/18 A299 RMK A01 T02140177  RH  079%=      5-min Rain = 0
KNH1 270434Z 17011KT 21/18 A299 RMK A01 T02140177  RH  079%=      5-min Rain = 0
KNH1 270435Z 17010KT 21/18 A299 RMK A01 T02140177  RH  080%=      5-min Rain = 0
KNH1 270436Z 17009KT 21/18 A299 RMK A01 T02140177  RH  080%=      5-min Rain = 0
KNH1 270437Z 17009KT 21/18 A299 RMK A01 T02130177  RH  080%=      5-min Rain = 0
KNH1 270438Z 16011KT 21/18 A299 RMK A01 T02130177  RH  080%=      5-min Rain = 0
KNH1 270439Z 16011KT 21/18 A299 RMK A01 T02130177  RH  080%=      5-min Rain = 0
KNH1 270440Z 16011KT 21/18 A299 RMK A01 T02130177  RH  080%=      5-min Rain = 0
KNH1 270441Z 17011KT 21/18 A299 RMK A01 T02130177  RH  080%=      5-min Rain = 0
KNH1 270442Z 17010KT 21/18 A299 RMK A01 T02130177  RH  080%=      5-min Rain = 0
KNH1 270443Z 17010KT 21/18 A299 RMK A01 T02130177  RH  080%=      5-min Rain = 0
KNH1 270444Z 16011KT 21/18 A299 RMK A01 T02140177  RH  079%=      5-min Rain = 0
KNH1 270445Z 17010KT 21/18 A299 RMK A01 T02140177  RH  079%=      5-min Rain = 0
KNH1 270446Z 17010KT 21/18 A299 RMK A01 T02130177  RH  080%=      5-min Rain = 0
KNH1 270447Z 17010KT 21/18 A299 RMK A01 T02130177  RH  080%=      5-min Rain = 0
KNH1 270448Z 16010KT 21/18 A299 RMK A01 T02130177  RH  080%=      5-min Rain = 0
KNH1 270449Z 16010KT 21/18 A2991 RMK A01 T02130177  RH  080%=      5-min Rain = 0
KNH1 270450Z 17009KT 21/18 A2991 RMK A01 T02130177  RH  080%=      5-min Rain = 0
KNH1 270451Z 16008KT 21/18 A2991 RMK A01 T02120177  RH  080%=      5-min Rain = 0
KNH1 270452Z 17009KT 21/18 A299 RMK A01 T02120177  RH  080%=      5-min Rain = 0
KNH1 270453Z 17008KT 21/18 A299 RMK A01 T02120177  RH  081%=      5-min Rain = 0
KNH1 270454Z 16010KT 21/18 A299 RMK A01 T02110177  RH  081%=      5-min Rain = 0
KNH1 270455Z 16009KT 21/18 A2991 RMK A01 T02110177  RH  081%=      5-min Rain = 0
KNH1 270456Z 17010KT 21/18 A2991 RMK A01 T02110177  RH  081%=      5-min Rain = 0
KNH1 270457Z 16009KT 21/18 A299 RMK A01 T02110177  RH  081%=      5-min Rain = 0
KNH1 270458Z 17008KT 21/18 A2991 RMK A01 T02110177  RH  081%=      5-min Rain = 0
KNH1 270459Z 17009KT 21/18 A299 RMK A01 T02110177  RH  081%=      5-min Rain = 0

Page generated in 0.0383 seconds.